M I D A S
Marine Information and Data Acquisition System
Tripno 1117 of the Zeeleeuw from 2006-06-28 06:48:05 to 2006-06-28 13:31:50
Back to CruiseResearch ActivitiesStationsMapUnderway DataData graphs

EquipmentUnitsComment
TimeDGPSUTC
LatitudeDGPSDM.mWGS84
LongitudeDGPSDM.mWGS84
TemperatureSBE03/SBE38deg celciusITS90
ConductivitySBE21S/mITS90
SalinitySBE21 Practical Salinity Units
ChlorophylAChelsea fluorimeterg/lCalibrated in Aceton
Missing or incorrect values are displayed as -999
Sea surface data collected by the RV Zeeleeuw from 2006-06-28 06:48:06 to 2006-06-28 13:44:32
                                                                                    Next 1000 lines
Time Latitude Longitude Temperature Conductivity Salinity ChlorophylA
2006-06-28 06:48:14 51°13.601 2°56.097 21.5077 0.007783 0.044133 24.163708
2006-06-28 06:48:21 51°13.602 2°56.095 21.5636 0.007887 0.044639 24.163708
2006-06-28 06:48:27 51°13.602 2°56.093 21.5604 0.007887 0.044639 24.163708
2006-06-28 06:48:31 51°13.603 2°56.091 21.5727 0.007887 0.044639 24.163708
2006-06-28 06:48:36 51°13.603 2°56.089 21.5733 0.007887 0.044639 24.163708
2006-06-28 06:48:41 51°13.604 2°56.086 21.5908 0.007887 0.044639 24.163708
2006-06-28 06:48:47 51°13.605 2°56.082 21.5888 0.007887 0.044639 24.129999
2006-06-28 06:48:51 51°13.605 2°56.08 21.5883 0.007887 0.044639 24.129999
2006-06-28 06:48:57 51°13.606 2°56.075 21.5982 0.007887 0.044639 24.129999
2006-06-28 06:49:02 51°13.607 2°56.07 21.5899 0.007783 0.044133 24.129999
2006-06-28 06:49:07 51°13.609 2°56.066 21.585 0.007783 0.044133 24.163708
2006-06-28 06:49:11 51°13.61 2°56.062 21.5948 0.007887 0.04464 24.129999
2006-06-28 06:49:17 51°13.612 2°56.055 21.5955 0.007783 0.044134 24.129999
2006-06-28 06:49:22 51°13.614 2°56.049 21.5971 0.007887 0.04464 24.129999
2006-06-28 06:49:27 51°13.616 2°56.043 21.603 0.007887 0.04464 24.129999
2006-06-28 06:49:31 51°13.617 2°56.038 21.6091 0.007887 0.044641 24.129999
2006-06-28 06:49:37 51°13.619 2°56.031 21.6106 0.007783 0.044135 24.129999
2006-06-28 06:49:41 51°13.62 2°56.025 21.6087 0.007887 0.044641 24.129999
2006-06-28 06:49:47 51°13.623 2°56.017 21.6102 0.007783 0.044135 24.096289
2006-06-28 06:49:52 51°13.625 2°56.01 21.6087 0.007887 0.044641 24.129999
2006-06-28 06:49:57 51°13.627 2°56.003 21.6092 0.007887 0.044641 24.129999
2006-06-28 06:50:02 51°13.63 2°55.996 21.6087 0.007783 0.044135 24.096289
2006-06-28 06:50:07 51°13.632 2°55.988 21.6108 0.007887 0.044642 24.129999
2006-06-28 06:50:11 51°13.633 2°55.982 21.6102 0.007783 0.044136 24.129999
2006-06-28 06:50:17 51°13.636 2°55.974 21.5846 0.007887 0.044642 24.129999
2006-06-28 06:50:21 51°13.638 2°55.967 21.6007 0.007887 0.044642 24.096289
2006-06-28 06:50:27 51°13.64 2°55.958 21.6308 0.007887 0.044642 24.096289
2006-06-28 06:50:32 51°13.642 2°55.95 21.6411 0.007887 0.044642 24.096289
2006-06-28 06:50:37 51°13.644 2°55.942 21.6276 0.007783 0.044136 24.096289
2006-06-28 06:50:42 51°13.646 2°55.935 21.6293 0.007887 0.044643 24.096289
2006-06-28 06:50:47 51°13.648 2°55.927 21.6357 0.007783 0.044137 24.129999
2006-06-28 06:50:51 51°13.65 2°55.921 21.6283 0.007783 0.044136 24.096289
2006-06-28 06:50:57 51°13.653 2°55.912 21.6246 0.007783 0.044136 24.096289
2006-06-28 06:51:01 51°13.655 2°55.906 21.6259 0.007887 0.044643 24.129999
2006-06-28 06:51:07 51°13.658 2°55.897 21.6303 0.007783 0.044137 24.096289
2006-06-28 06:51:12 51°13.66 2°55.889 21.629 0.007887 0.044643 24.096289
2006-06-28 06:51:17 51°13.663 2°55.882 21.6301 0.007783 0.044137 24.096289
2006-06-28 06:51:22 51°13.665 2°55.875 21.6304 0.007887 0.044643 24.096289
2006-06-28 06:51:27 51°13.668 2°55.867 21.6301 0.007887 0.044643 24.096289
2006-06-28 06:51:32 51°13.671 2°55.86 21.6296 0.007783 0.044138 24.096289
2006-06-28 06:51:37 51°13.673 2°55.853 21.6354 0.007783 0.044137 24.096289
2006-06-28 06:51:41 51°13.674 2°55.847 21.6342 0.007783 0.044138 24.096289
2006-06-28 06:51:47 51°13.678 2°55.838 21.628 0.007783 0.044138 24.096289
2006-06-28 06:51:52 51°13.681 2°55.831 21.6284 0.007783 0.044137 24.06258
2006-06-28 06:51:57 51°13.685 2°55.824 21.6268 0.007783 0.044137 24.06258
2006-06-28 06:52:02 51°13.689 2°55.817 21.6289 0.007783 0.044138 24.096289
2006-06-28 06:52:07 51°13.692 2°55.809 21.6304 0.007783 0.044138 24.096289
2006-06-28 06:52:11 51°13.695 2°55.803 21.6337 0.007783 0.044138 24.096289
2006-06-28 06:52:17 51°13.699 2°55.794 21.6353 0.007783 0.044138 24.06258
2006-06-28 06:52:22 51°13.702 2°55.787 21.6379 0.007783 0.044138 24.06258
2006-06-28 06:52:27 51°13.705 2°55.781 21.6407 0.007783 0.044138 24.06258
2006-06-28 06:52:31 51°13.707 2°55.776 21.6365 0.007783 0.044139 24.096289
2006-06-28 06:52:37 51°13.709 2°55.768 21.6329 0.007783 0.044139 24.096289
2006-06-28 06:52:42 51°13.712 2°55.762 21.6304 0.007783 0.044139 24.096289
2006-06-28 06:52:46 51°13.714 2°55.758 21.6233 0.007783 0.044139 24.06258
2006-06-28 06:52:51 51°13.716 2°55.752 21.6444 0.007783 0.044139 24.06258
2006-06-28 06:52:56 51°13.719 2°55.747 21.6179 0.007783 0.044139 24.06258
2006-06-28 06:52:58 51°13.719 2°55.745 21.6129 0.007783 0.044139 24.06258
2006-06-28 06:53:06 51°13.722 2°55.738 21.6348 0.007783 0.044139 24.096289
2006-06-28 06:53:11 51°13.723 2°55.735 21.6234 0.007887 0.044645 24.06258
2006-06-28 06:53:16 51°13.724 2°55.731 21.6403 0.007783 0.044139 24.096289
2006-06-28 06:53:21 51°13.725 2°55.728 21.638 0.007783 0.044139 24.06258
2006-06-28 06:53:25 51°13.726 2°55.727 21.6404 0.007783 0.044139 24.06258
2006-06-28 06:53:31 51°13.727 2°55.724 21.6404 0.007783 0.04414 24.06258
2006-06-28 06:53:35 51°13.728 2°55.723 21.6405 0.007783 0.044139 24.06258
2006-06-28 06:53:40 51°13.729 2°55.722 21.6403 0.007783 0.044139 24.096289
2006-06-28 06:53:47 51°13.729 2°55.721 21.6396 0.007783 0.04414 24.028871
2006-06-28 06:53:51 51°13.73 2°55.722 21.6412 0.007783 0.04414 24.028871
2006-06-28 06:53:56 51°13.73 2°55.722 21.6416 0.007783 0.04414 24.028871
2006-06-28 06:54:01 51°13.73 2°55.723 21.6444 0.007783 0.04414 24.06258
2006-06-28 06:54:06 51°13.73 2°55.724 21.6448 0.007783 0.04414 24.06258
2006-06-28 06:54:10 51°13.731 2°55.725 21.6393 0.007783 0.044141 24.06258
2006-06-28 06:54:15 51°13.732 2°55.727 21.6033 0.007783 0.044141 24.028871
2006-06-28 06:54:22 51°13.733 2°55.728 21.5992 0.007783 0.04414 24.028871
2006-06-28 06:54:26 51°13.733 2°55.729 21.6036 0.007783 0.04414 24.028871
2006-06-28 06:54:31 51°13.733 2°55.729 21.607 0.007783 0.04414 24.028871
2006-06-28 06:54:36 51°13.732 2°55.729 21.5979 0.007783 0.044141 23.995161
2006-06-28 06:54:41 51°13.731 2°55.728 21.6118 0.007783 0.044141 24.028871
2006-06-28 06:54:46 51°13.731 2°55.727 21.6464 0.007783 0.044141 24.06258
2006-06-28 06:54:50 51°13.731 2°55.725 21.6485 0.007783 0.044141 24.028871
2006-06-28 06:54:57 51°13.73 2°55.723 21.6481 0.007783 0.044141 24.028871
2006-06-28 06:55:01 51°13.73 2°55.722 21.6377 0.007783 0.044141 24.028871
2006-06-28 06:55:06 51°13.73 2°55.721 21.6436 0.007783 0.044141 24.028871
2006-06-28 06:55:11 51°13.729 2°55.72 21.6482 0.007783 0.044141 24.028871
2006-06-28 06:55:16 51°13.729 2°55.719 21.6821 0.007783 0.044142 23.995161
2006-06-28 06:55:21 51°13.729 2°55.719 21.6776 0.007783 0.044142 24.028871
2006-06-28 06:55:26 51°13.73 2°55.719 21.6891 0.007783 0.044142 24.028871
2006-06-28 06:55:30 51°13.731 2°55.719 21.6909 0.007783 0.044141 24.028871
2006-06-28 06:55:34 51°13.732 2°55.719 21.691 0.007783 0.044142 24.028871
2006-06-28 06:55:41 51°13.734 2°55.72 21.6914 0.007783 0.044142 24.028871
2006-06-28 06:55:47 51°13.737 2°55.72 21.6969 0.007783 0.044142 24.028871
2006-06-28 06:55:51 51°13.739 2°55.719 21.6914 0.007783 0.044142 23.995161
2006-06-28 06:55:55 51°13.741 2°55.719 21.7001 0.007783 0.044142 23.995161
2006-06-28 06:56:01 51°13.745 2°55.718 21.7114 0.007783 0.044142 24.028871
2006-06-28 06:56:05 51°13.747 2°55.716 21.7129 0.007783 0.044143 23.995161
2006-06-28 06:56:10 51°13.751 2°55.714 21.7101 0.007783 0.044143 23.995161
2006-06-28 06:56:15 51°13.755 2°55.71 21.6739 0.007783 0.044143 23.995161
2006-06-28 06:56:21 51°13.761 2°55.705 21.6133 0.007783 0.044143 23.995161
2006-06-28 06:56:25 51°13.765 2°55.701 21.6362 0.007783 0.044143 23.995161
2006-06-28 06:56:31 51°13.771 2°55.695 21.6109 0.007783 0.044142 24.028871
2006-06-28 06:56:37 51°13.778 2°55.688 21.5966 0.007783 0.044142 23.995161
2006-06-28 06:56:41 51°13.783 2°55.683 21.5732 0.007783 0.044142 24.028871
2006-06-28 06:56:45 51°13.788 2°55.678 21.5567 0.007783 0.044141 23.995161
2006-06-28 06:56:51 51°13.797 2°55.669 21.5674 0.007783 0.044141 23.995161
2006-06-28 06:56:55 51°13.802 2°55.662 21.5818 0.007783 0.044141 23.995161
2006-06-28 06:57:02 51°13.814 2°55.652 21.5729 0.007783 0.044141 23.995161
2006-06-28 06:57:06 51°13.82 2°55.646 21.5582 0.007783 0.044141 23.995161
2006-06-28 06:57:11 51°13.829 2°55.638 21.4774 0.007783 0.044141 23.995161
2006-06-28 06:57:15 51°13.837 2°55.632 21.5508 0.007783 0.044141 23.961452
2006-06-28 06:57:22 51°13.851 2°55.622 21.5355 0.007783 0.044141 23.995161
2006-06-28 06:57:26 51°13.859 2°55.616 21.5538 0.007783 0.044141 23.995161
2006-06-28 06:57:31 51°13.869 2°55.608 21.5107 0.007783 0.044141 23.995161
2006-06-28 06:57:35 51°13.877 2°55.602 21.5833 0.007783 0.044141 23.995161
2006-06-28 06:57:41 51°13.889 2°55.593 21.562 0.007783 0.044141 23.995161
2006-06-28 06:57:45 51°13.897 2°55.587 21.5832 0.007783 0.044142 23.961452
2006-06-28 06:57:51 51°13.909 2°55.578 21.5785 0.007783 0.044142 23.995161
2006-06-28 06:57:55 51°13.916 2°55.572 21.5886 0.007783 0.044142 23.995161
2006-06-28 06:58:02 51°13.93 2°55.562 21.5922 0.007783 0.044143 23.995161
2006-06-28 06:58:06 51°13.937 2°55.557 21.5953 0.007783 0.044143 23.995161
2006-06-28 06:58:11 51°13.946 2°55.55 21.5931 0.007783 0.044143 23.961452
2006-06-28 06:58:15 51°13.953 2°55.544 21.5993 0.007783 0.044143 23.995161
2006-06-28 06:58:21 51°13.964 2°55.536 21.5947 0.007783 0.044143 23.995161
2006-06-28 06:58:25 51°13.971 2°55.531 21.6022 0.007783 0.044143 23.995161
2006-06-28 06:58:31 51°13.982 2°55.524 21.6037 0.007783 0.044143 23.961452
2006-06-28 06:58:37 51°13.992 2°55.516 21.6008 0.007783 0.044143 23.995161
2006-06-28 06:58:41 51°14 2°55.511 21.6018 0.007783 0.044143 23.961452
2006-06-28 06:58:46 51°14.008 2°55.505 21.6132 0.007783 0.044143 23.961452
2006-06-28 06:58:51 51°14.017 2°55.499 21.6156 0.007783 0.044143 23.995161
2006-06-28 06:58:55 51°14.024 2°55.494 21.6199 0.007783 0.044143 23.995161
2006-06-28 06:59:00 51°14.033 2°55.488 21.6237 0.007783 0.044143 23.961452
2006-06-28 06:59:05 51°14.041 2°55.483 21.6177 0.007783 0.044144 23.961452
2006-06-28 06:59:11 51°14.051 2°55.475 21.6351 0.007783 0.044143 23.961452
2006-06-28 06:59:15 51°14.058 2°55.471 21.6349 0.007783 0.044144 23.961452
2006-06-28 06:59:22 51°14.071 2°55.461 21.6365 0.007783 0.044144 23.927742
2006-06-28 06:59:26 51°14.078 2°55.456 21.6349 0.007783 0.044144 23.927742
2006-06-28 06:59:31 51°14.088 2°55.449 21.636 0.007783 0.044144 23.961452
2006-06-28 06:59:35 51°14.096 2°55.443 21.6209 0.007783 0.044144 23.961452
2006-06-28 06:59:42 51°14.11 2°55.433 21.6146 0.007783 0.044143 23.961452
2006-06-28 06:59:47 51°14.12 2°55.424 21.5956 0.007783 0.044143 23.927742
2006-06-28 06:59:51 51°14.129 2°55.417 21.5683 0.007783 0.044143 23.961452
2006-06-28 06:59:55 51°14.137 2°55.41 21.603 0.007783 0.044143 23.961452
2006-06-28 07:00:02 51°14.152 2°55.398 21.6398 0.007783 0.044143 23.961452
2006-06-28 07:00:07 51°14.163 2°55.388 21.6477 0.007783 0.044143 23.961452
2006-06-28 07:00:11 51°14.172 2°55.379 21.6442 0.007783 0.044144 23.927742
2006-06-28 07:00:15 51°14.18 2°55.37 21.6408 0.007783 0.044144 23.927742
2006-06-28 07:00:21 51°14.193 2°55.356 21.6373 0.007783 0.044144 23.927742
2006-06-28 07:00:26 51°14.203 2°55.344 21.6139 0.007783 0.044144 23.927742
2006-06-28 07:00:31 51°14.213 2°55.33 21.5985 0.007783 0.044144 23.927742
2006-06-28 07:00:35 51°14.221 2°55.32 21.6261 0.007783 0.044143 23.961452
2006-06-28 07:00:40 51°14.231 2°55.305 21.6381 0.007783 0.044143 23.927742
2006-06-28 07:00:46 51°14.243 2°55.287 21.6369 0.007783 0.044143 23.894033
2006-06-28 07:00:51 51°14.252 2°55.272 21.5874 0.007783 0.044144 23.894033
2006-06-28 07:00:55 51°14.259 2°55.259 21.5665 0.007783 0.044144 23.894033
2006-06-28 07:01:01 51°14.271 2°55.239 21.5782 0.007783 0.044143 23.894033
2006-06-28 07:01:07 51°14.282 2°55.218 21.5325 0.007783 0.044143 23.927742
2006-06-28 07:01:11 51°14.289 2°55.205 21.559 0.007783 0.044143 23.894033
2006-06-28 07:01:15 51°14.296 2°55.191 21.6033 0.007783 0.044143 23.927742
2006-06-28 07:01:18 51°14.302 2°55.18 21.596 0.007783 0.044143 23.927742
2006-06-28 07:01:22 51°14.309 2°55.166 21.5618 0.007783 0.044143 23.927742
2006-06-28 07:01:31 51°14.325 2°55.133 21.5745 0.007783 0.044143 23.927742
2006-06-28 07:01:37 51°14.336 2°55.111 21.5938 0.007783 0.044143 23.927742
2006-06-28 07:01:42 51°14.345 2°55.092 21.5204 0.007783 0.044143 23.927742
2006-06-28 07:01:46 51°14.352 2°55.076 21.5785 0.007783 0.044143 23.894033
2006-06-28 07:01:51 51°14.361 2°55.057 21.6121 0.007783 0.044143 23.927742
2006-06-28 07:01:57 51°14.371 2°55.032 21.5932 0.007783 0.044143 23.927742
2006-06-28 07:01:59 51°14.374 2°55.024 21.5312 0.007783 0.044143 23.894033
2006-06-28 07:02:07 51°14.387 2°54.99 21.5328 0.007783 0.044143 23.927742
2006-06-28 07:02:11 51°14.393 2°54.972 21.5358 0.007783 0.044143 23.894033
2006-06-28 07:02:15 51°14.399 2°54.955 21.5597 0.007783 0.044143 23.927742
2006-06-28 07:02:22 51°14.41 2°54.923 21.5339 0.007783 0.044143 23.894033
2006-06-28 07:02:27 51°14.418 2°54.9 21.5405 0.007783 0.044143 23.894033
2006-06-28 07:02:31 51°14.424 2°54.882 21.5615 0.007783 0.044143 23.894033
2006-06-28 07:02:35 51°14.431 2°54.863 21.5808 0.007783 0.044143 23.927742
2006-06-28 07:02:42 51°14.442 2°54.83 21.5519 0.007783 0.044143 23.894033
2006-06-28 07:02:46 51°14.448 2°54.81 21.523 0.007783 0.044144 23.860324
2006-06-28 07:02:51 51°14.456 2°54.785 21.5634 0.007783 0.044144 23.894033
2006-06-28 07:02:55 51°14.463 2°54.765 21.4973 0.007783 0.044144 23.894033
2006-06-28 07:03:00 51°14.471 2°54.74 21.5339 0.007783 0.044143 23.860324
2006-06-28 07:03:04 51°14.478 2°54.72 21.5265 0.007783 0.044143 23.961452
2006-06-28 07:03:11 51°14.49 2°54.684 21.5314 0.007783 0.044142 23.894033
2006-06-28 07:03:17 51°14.501 2°54.653 21.5213 0.007783 0.044143 23.927742
2006-06-28 07:03:21 51°14.508 2°54.632 21.5243 0.007783 0.044143 23.894033
2006-06-28 07:03:27 51°14.518 2°54.601 21.5129 0.007783 0.044143 23.894033
2006-06-28 07:03:31 51°14.525 2°54.58 21.4939 0.007783 0.044143 23.894033
2006-06-28 07:03:35 51°14.532 2°54.559 21.478 0.007783 0.044144 23.860324
2006-06-28 07:03:41 51°14.543 2°54.528 21.477 0.007783 0.044143 23.894033
2006-06-28 07:03:45 51°14.551 2°54.508 21.4709 0.007783 0.044143 23.860324
2006-06-28 07:03:50 51°14.56 2°54.482 21.4293 0.007783 0.044142 23.826614
2006-06-28 07:03:57 51°14.574 2°54.447 21.4828 0.007783 0.044142 23.826614
2006-06-28 07:04:01 51°14.581 2°54.427 21.4732 0.007783 0.044143 23.894033
2006-06-28 07:04:07 51°14.593 2°54.398 21.4691 0.007783 0.044143 23.894033
2006-06-28 07:04:10 51°14.599 2°54.382 21.4521 0.007783 0.044144 23.894033
2006-06-28 07:04:17 51°14.613 2°54.348 21.4579 0.007783 0.044143 23.894033
2006-06-28 07:04:21 51°14.621 2°54.327 21.4676 0.007783 0.044143 23.826614
2006-06-28 07:04:25 51°14.629 2°54.308 21.4483 0.007783 0.044143 23.826614
2006-06-28 07:04:31 51°14.642 2°54.278 21.4627 0.007783 0.044144 23.894033
2006-06-28 07:04:35 51°14.65 2°54.26 21.4539 0.007783 0.044144 23.860324
2006-06-28 07:04:42 51°14.665 2°54.227 21.4343 0.007783 0.044145 23.894033
2006-06-28 07:04:46 51°14.674 2°54.208 21.4461 0.007783 0.044145 23.894033
2006-06-28 07:04:51 51°14.686 2°54.186 21.4708 0.007783 0.044144 23.894033
2006-06-28 07:04:54 51°14.693 2°54.173 21.4238 0.007783 0.044144 23.894033
2006-06-28 07:05:01 51°14.71 2°54.142 21.4197 0.007783 0.044144 23.860324
2006-06-28 07:05:05 51°14.719 2°54.125 21.4602 0.007783 0.044144 23.826614
2006-06-28 07:05:10 51°14.732 2°54.104 21.4524 0.007783 0.044145 23.894033
2006-06-28 07:05:15 51°14.744 2°54.083 21.4515 0.007783 0.044145 23.826614
2006-06-28 07:05:20 51°14.757 2°54.063 21.4333 0.007783 0.044145 23.894033
2006-06-28 07:05:27 51°14.776 2°54.038 21.4503 0.007783 0.044145 23.894033
2006-06-28 07:05:30 51°14.784 2°54.027 21.4631 0.007783 0.044146 23.894033
2006-06-28 07:05:37 51°14.804 2°54.004 21.4532 0.007783 0.044147 23.894033
2006-06-28 07:05:41 51°14.816 2°53.992 21.4212 0.007783 0.044145 23.860324
2006-06-28 07:05:46 51°14.83 2°53.977 21.4586 0.007783 0.044145 23.860324
2006-06-28 07:05:51 51°14.846 2°53.964 21.4727 0.007783 0.044146 23.860324
2006-06-28 07:05:57 51°14.864 2°53.949 21.4537 0.007783 0.044146 23.860324
2006-06-28 07:06:02 51°14.879 2°53.936 21.449 0.007783 0.044146 23.860324
2006-06-28 07:06:06 51°14.891 2°53.926 21.4806 0.007783 0.044146 23.826614
2006-06-28 07:06:11 51°14.906 2°53.913 21.4845 0.007783 0.044147 23.826614
2006-06-28 07:06:17 51°14.924 2°53.899 21.4804 0.007783 0.044147 23.860324
2006-06-28 07:06:22 51°14.939 2°53.886 21.4661 0.007783 0.044147 23.826614
2006-06-28 07:06:27 51°14.954 2°53.873 21.4843 0.007783 0.044147 23.826614
2006-06-28 07:06:31 51°14.966 2°53.863 21.4722 0.007783 0.044147 23.826614
2006-06-28 07:06:34 51°14.975 2°53.855 21.4925 0.007783 0.044148 23.826614
2006-06-28 07:06:41 51°14.996 2°53.837 21.4897 0.007783 0.044147 23.826614
2006-06-28 07:06:44 51°15.005 2°53.83 21.4651 0.007783 0.044148 23.792905
2006-06-28 07:06:51 51°15.026 2°53.812 21.4893 0.007783 0.044148 23.826614
2006-06-28 07:06:55 51°15.038 2°53.803 21.4791 0.007783 0.044148 23.826614
2006-06-28 07:07:02 51°15.06 2°53.786 21.4809 0.007783 0.044148 23.759195
2006-06-28 07:07:07 51°15.075 2°53.774 21.4746 0.007783 0.044149 23.860324
2006-06-28 07:07:11 51°15.087 2°53.764 21.4893 0.007783 0.044148 23.792905
2006-06-28 07:07:15 51°15.099 2°53.754 21.5036 0.007783 0.044149 23.860324
2006-06-28 07:07:22 51°15.12 2°53.736 21.4998 0.007783 0.044148 23.725486
2006-06-28 07:07:27 51°15.135 2°53.723 21.4941 0.007783 0.044148 23.725486
2006-06-28 07:07:31 51°15.147 2°53.713 21.5131 0.007783 0.044149 23.792905
2006-06-28 07:07:35 51°15.159 2°53.702 21.4729 0.007783 0.044149 23.792905
2006-06-28 07:07:40 51°15.174 2°53.688 21.5052 0.007783 0.044149 23.759195
2006-06-28 07:07:46 51°15.192 2°53.672 21.4818 0.007783 0.044149 23.792905
2006-06-28 07:07:52 51°15.21 2°53.656 21.5083 0.007783 0.04415 23.826614
2006-06-28 07:07:57 51°15.225 2°53.642 21.5114 0.007783 0.04415 23.826614
2006-06-28 07:08:01 51°15.237 2°53.631 21.5052 0.007783 0.044149 23.759195
2006-06-28 07:08:04 51°15.246 2°53.622 21.499 0.007783 0.04415 23.826614
2006-06-28 07:08:11 51°15.267 2°53.603 21.5044 0.007783 0.04415 23.792905
2006-06-28 07:08:14 51°15.276 2°53.594 21.4884 0.007783 0.04415 23.759195
2006-06-28 07:08:21 51°15.297 2°53.575 21.5029 0.007783 0.04415 23.826614
2006-06-28 07:08:22 51°15.3 2°53.572 21.5166 0.007783 0.04415 23.826614
2006-06-28 07:08:31 51°15.327 2°53.548 21.5219 0.007783 0.044149 23.759195
2006-06-28 07:08:37 51°15.345 2°53.532 21.5185 0.007783 0.04415 23.792905
2006-06-28 07:08:42 51°15.359 2°53.517 21.5243 0.007783 0.04415 23.792905
2006-06-28 07:08:47 51°15.375 2°53.503 21.4968 0.007783 0.044151 23.725486
2006-06-28 07:08:51 51°15.386 2°53.491 21.5075 0.007783 0.044151 23.792905
2006-06-28 07:08:57 51°15.404 2°53.474 21.5281 0.007783 0.044151 23.792905
2006-06-28 07:09:02 51°15.418 2°53.459 21.5163 0.007783 0.044151 23.759195
2006-06-28 07:09:06 51°15.43 2°53.447 21.5125 0.007783 0.044151 23.792905
2006-06-28 07:09:11 51°15.444 2°53.432 21.5179 0.007783 0.044151 23.725486
2006-06-28 07:09:15 51°15.456 2°53.421 21.5267 0.007783 0.044151 23.759195
2006-06-28 07:09:21 51°15.474 2°53.404 21.527 0.007783 0.044151 23.759195
2006-06-28 07:09:27 51°15.492 2°53.387 21.511 0.007783 0.044151 23.759195
2006-06-28 07:09:32 51°15.507 2°53.373 21.5336 0.007783 0.044152 23.759195
2006-06-28 07:09:35 51°15.515 2°53.365 21.5223 0.007783 0.044151 23.759195
2006-06-28 07:09:41 51°15.533 2°53.348 21.522 0.007783 0.044151 23.759195
2006-06-28 07:09:47 51°15.551 2°53.332 21.5377 0.007783 0.044151 23.725486
2006-06-28 07:09:52 51°15.566 2°53.318 21.5327 0.007783 0.044151 23.725486
2006-06-28 07:09:55 51°15.575 2°53.31 21.5287 0.007783 0.044151 23.725486
2006-06-28 07:10:01 51°15.593 2°53.293 21.5363 0.007783 0.044152 23.759195
2006-06-28 07:10:04 51°15.602 2°53.284 21.5228 0.007783 0.044151 23.759195
2006-06-28 07:10:11 51°15.623 2°53.264 21.5455 0.007783 0.044152 23.725486
2006-06-28 07:10:15 51°15.635 2°53.253 21.5388 0.007783 0.044152 23.759195
2006-06-28 07:10:21 51°15.652 2°53.235 21.5362 0.007783 0.044151 23.691777
2006-06-28 07:10:26 51°15.667 2°53.221 21.5316 0.007783 0.044151 23.691777
2006-06-28 07:10:31 51°15.682 2°53.206 21.5461 0.007783 0.044152 23.725486
2006-06-28 07:10:37 51°15.7 2°53.188 21.5239 0.007783 0.044152 23.725486
2006-06-28 07:10:42 51°15.715 2°53.173 21.5161 0.007783 0.044153 23.725486
2006-06-28 07:10:46 51°15.726 2°53.161 21.5272 0.007783 0.044152 23.691777
2006-06-28 07:10:51 51°15.742 2°53.147 21.5423 0.007783 0.044152 23.792905
2006-06-28 07:10:57 51°15.76 2°53.131 21.5534 0.007783 0.044152 23.792905
2006-06-28 07:11:01 51°15.772 2°53.121 21.5482 0.007783 0.044152 23.691777
2006-06-28 07:11:07 51°15.791 2°53.105 21.5544 0.007783 0.044153 23.725486
2006-06-28 07:11:11 51°15.803 2°53.096 21.5486 0.007783 0.044153 23.759195
2006-06-28 07:11:15 51°15.816 2°53.086 21.5417 0.007783 0.044153 23.725486
2006-06-28 07:11:22 51°15.837 2°53.069 21.5585 0.007783 0.044153 23.725486
2006-06-28 07:11:27 51°15.853 2°53.057 21.5584 0.007783 0.044153 23.725486
2006-06-28 07:11:31 51°15.866 2°53.047 21.5454 0.007783 0.044153 23.691777
2006-06-28 07:11:35 51°15.878 2°53.038 21.5432 0.007783 0.044153 23.725486
2006-06-28 07:11:42 51°15.9 2°53.021 21.5606 0.007783 0.044152 23.691777
2006-06-28 07:11:47 51°15.916 2°53.009 21.566 0.007783 0.044154 23.759195
2006-06-28 07:11:52 51°15.932 2°52.997 21.5678 0.007783 0.044153 23.658067
2006-06-28 07:11:55 51°15.941 2°52.989 21.5618 0.007783 0.044153 23.658067
2006-06-28 07:12:01 51°15.96 2°52.975 21.5606 0.007783 0.044154 23.691777
2006-06-28 07:12:07 51°15.979 2°52.96 21.5658 0.007783 0.044154 23.691777
2006-06-28 07:12:11 51°15.991 2°52.95 21.5668 0.007783 0.044153 23.658067
2006-06-28 07:12:17 51°16.01 2°52.937 21.5736 0.007783 0.044154 23.725486
2006-06-28 07:12:22 51°16.026 2°52.925 21.572 0.007783 0.044153 23.691777
2006-06-28 07:12:27 51°16.041 2°52.913 21.5708 0.007783 0.044153 23.691777
2006-06-28 07:12:31 51°16.054 2°52.904 21.5772 0.007783 0.044154 23.725486
2006-06-28 07:12:35 51°16.066 2°52.894 21.5529 0.007783 0.044154 23.691777
2006-06-28 07:12:41 51°16.085 2°52.879 21.5647 0.007783 0.044154 23.658067
2006-06-28 07:12:46 51°16.101 2°52.867 21.5754 0.007783 0.044154 23.725486
2006-06-28 07:12:51 51°16.116 2°52.856 21.5567 0.007783 0.044153 23.624358
2006-06-28 07:12:55 51°16.129 2°52.847 21.5617 0.007783 0.044153 23.624358
2006-06-28 07:13:01 51°16.148 2°52.834 21.5714 0.007783 0.044155 23.725486
2006-06-28 07:13:06 51°16.164 2°52.824 21.5829 0.007783 0.044154 23.658067
2006-06-28 07:13:11 51°16.18 2°52.813 21.5807 0.007783 0.044154 23.658067
2006-06-28 07:13:17 51°16.199 2°52.801 21.5628 0.007783 0.044154 23.624358
2006-06-28 07:13:22 51°16.215 2°52.79 21.5764 0.007783 0.044155 23.691777
2006-06-28 07:13:27 51°16.231 2°52.78 21.578 0.007783 0.044155 23.691777
2006-06-28 07:13:31 51°16.244 2°52.772 21.5851 0.007783 0.044155 23.691777
2006-06-28 07:13:35 51°16.257 2°52.764 21.5725 0.007783 0.044155 23.658067
2006-06-28 07:13:41 51°16.276 2°52.752 21.5856 0.007783 0.044154 23.624358
2006-06-28 07:13:46 51°16.292 2°52.741 21.5721 0.007783 0.044155 23.725486
2006-06-28 07:13:51 51°16.308 2°52.73 21.5852 0.007783 0.044154 23.691777
2006-06-28 07:13:55 51°16.321 2°52.721 21.5874 0.007783 0.044154 23.691777
2006-06-28 07:14:01 51°16.34 2°52.708 21.5856 0.007783 0.044154 23.658067
2006-06-28 07:14:05 51°16.353 2°52.7 21.5738 0.007783 0.044155 23.658067
2006-06-28 07:14:11 51°16.372 2°52.686 21.5946 0.007783 0.044155 23.624358
2006-06-28 07:14:16 51°16.388 2°52.675 21.5855 0.007783 0.044156 23.725486
2006-06-28 07:14:21 51°16.404 2°52.664 21.6031 0.007783 0.044156 23.725486
2006-06-28 07:14:24 51°16.413 2°52.658 21.6004 0.007783 0.044156 23.725486
2006-06-28 07:14:31 51°16.435 2°52.643 21.6024 0.007783 0.044155 23.624358
2006-06-28 07:14:35 51°16.448 2°52.634 21.6067 0.007783 0.044156 23.658067
2006-06-28 07:14:41 51°16.467 2°52.621 21.6082 0.007783 0.044156 23.658067
2006-06-28 07:14:46 51°16.483 2°52.611 21.5941 0.007783 0.044156 23.658067
2006-06-28 07:14:51 51°16.499 2°52.599 21.5787 0.007783 0.044156 23.658067
2006-06-28 07:14:57 51°16.519 2°52.587 21.6048 0.007783 0.044156 23.658067
2006-06-28 07:15:02 51°16.535 2°52.576 21.6102 0.007783 0.044156 23.691777
2006-06-28 07:15:06 51°16.547 2°52.568 21.6029 0.007783 0.044155 23.590648
2006-06-28 07:15:11 51°16.564 2°52.557 21.6123 0.007783 0.044156 23.624358
2006-06-28 07:15:17 51°16.583 2°52.545 21.6146 0.007783 0.044156 23.658067
2006-06-28 07:15:22 51°16.599 2°52.535 21.6056 0.007783 0.044156 23.624358
2006-06-28 07:15:27 51°16.615 2°52.524 21.5988 0.007783 0.044156 23.624358
2006-06-28 07:15:31 51°16.628 2°52.516 21.6135 0.007783 0.044156 23.658067
2006-06-28 07:15:37 51°16.647 2°52.504 21.6108 0.007783 0.044155 23.590648
2006-06-28 07:15:41 51°16.66 2°52.496 21.6124 0.007783 0.044156 23.691777
2006-06-28 07:15:45 51°16.672 2°52.488 21.6213 0.007783 0.044155 23.590648
2006-06-28 07:15:50 51°16.688 2°52.478 21.6006 0.007783 0.044156 23.590648
2006-06-28 07:15:55 51°16.704 2°52.468 21.6215 0.007783 0.044156 23.590648
2006-06-28 07:16:01 51°16.723 2°52.455 21.6148 0.007783 0.044157 23.658067
2006-06-28 07:16:05 51°16.736 2°52.447 21.6112 0.007783 0.044157 23.624358
2006-06-28 07:16:11 51°16.755 2°52.435 21.6245 0.007783 0.044156 23.590648
2006-06-28 07:16:17 51°16.774 2°52.424 21.6248 0.007783 0.044156 23.658067
2006-06-28 07:16:22 51°16.79 2°52.415 21.6235 0.007783 0.044156 23.658067
2006-06-28 07:16:27 51°16.806 2°52.405 21.63 0.007783 0.044156 23.658067
2006-06-28 07:16:31 51°16.819 2°52.398 21.6122 0.007783 0.044156 23.624358
2006-06-28 07:16:36 51°16.835 2°52.388 21.6164 0.007783 0.044156 23.624358
2006-06-28 07:16:41 51°16.851 2°52.379 21.6092 0.007783 0.044156 23.590648
2006-06-28 07:16:46 51°16.867 2°52.369 21.6377 0.007783 0.044157 23.624358
2006-06-28 07:16:51 51°16.883 2°52.359 21.6141 0.007783 0.044156 23.590648
2006-06-28 07:16:55 51°16.895 2°52.351 21.6405 0.007783 0.044156 23.590648
2006-06-28 07:16:58 51°16.905 2°52.345 21.6496 0.007783 0.044156 23.624358
2006-06-28 07:17:05 51°16.927 2°52.331 21.6416 0.007783 0.044157 23.590648
2006-06-28 07:17:11 51°16.946 2°52.317 21.6487 0.007783 0.044157 23.556939
2006-06-28 07:17:16 51°16.961 2°52.305 21.6442 0.007783 0.044157 23.624358
2006-06-28 07:17:22 51°16.98 2°52.291 21.608 0.007783 0.044156 23.48952
2006-06-28 07:17:27 51°16.995 2°52.279 21.6422 0.007783 0.044156 23.48952
2006-06-28 07:17:31 51°17.007 2°52.269 21.6313 0.007783 0.044156 23.590648
2006-06-28 07:17:37 51°17.026 2°52.256 21.6358 0.007783 0.044157 23.590648
2006-06-28 07:17:41 51°17.039 2°52.248 21.6357 0.007783 0.044157 23.624358
2006-06-28 07:17:45 51°17.051 2°52.24 21.6401 0.007783 0.044157 23.590648
2006-06-28 07:17:51 51°17.071 2°52.229 21.6253 0.007783 0.044158 23.590648
2006-06-28 07:17:57 51°17.09 2°52.219 21.648 0.007783 0.044158 23.590648
2006-06-28 07:18:01 51°17.103 2°52.213 21.6434 0.007783 0.044158 23.624358
2006-06-28 07:18:07 51°17.123 2°52.204 21.6325 0.007783 0.044157 23.590648
2006-06-28 07:18:11 51°17.136 2°52.198 21.6481 0.007783 0.044157 23.52323
2006-06-28 07:18:16 51°17.152 2°52.191 21.6465 0.007783 0.044158 23.590648
2006-06-28 07:18:22 51°17.171 2°52.182 21.6541 0.007783 0.044158 23.556939
2006-06-28 07:18:27 51°17.187 2°52.176 21.6519 0.007783 0.044158 23.556939
2006-06-28 07:18:32 51°17.204 2°52.169 21.6597 0.007783 0.044158 23.590648
2006-06-28 07:18:37 51°17.22 2°52.162 21.6615 0.007783 0.044158 23.52323
2006-06-28 07:18:41 51°17.233 2°52.157 21.6586 0.007783 0.044158 23.556939
2006-06-28 07:18:47 51°17.253 2°52.148 21.6351 0.007783 0.044158 23.556939
2006-06-28 07:18:51 51°17.266 2°52.142 21.6647 0.007783 0.044158 23.624358
2006-06-28 07:18:55 51°17.279 2°52.136 21.6607 0.007783 0.044158 23.624358
2006-06-28 07:19:01 51°17.298 2°52.128 21.6554 0.007783 0.044156 23.48952
2006-06-28 07:19:06 51°17.314 2°52.121 21.6597 0.007783 0.044158 23.52323
2006-06-28 07:19:12 51°17.334 2°52.112 21.6746 0.007783 0.044158 23.556939
2006-06-28 07:19:17 51°17.349 2°52.105 21.6815 0.007783 0.044158 23.556939
2006-06-28 07:19:22 51°17.366 2°52.097 21.7007 0.007783 0.044159 23.556939
2006-06-28 07:19:26 51°17.378 2°52.089 21.7074 0.007783 0.044159 23.556939
2006-06-28 07:19:31 51°17.393 2°52.077 21.6732 0.007783 0.04416 23.48952
2006-06-28 07:19:37 51°17.41 2°52.06 21.6638 0.007783 0.04416 23.556939
2006-06-28 07:19:42 51°17.424 2°52.045 21.6831 0.007783 0.044159 23.455811
2006-06-28 07:19:47 51°17.438 2°52.029 21.6612 0.007783 0.044159 23.52323
2006-06-28 07:19:51 51°17.449 2°52.016 21.6515 0.007783 0.044159 23.48952
2006-06-28 07:19:57 51°17.466 2°51.996 21.6773 0.007783 0.044159 23.48952
2006-06-28 07:20:01 51°17.476 2°51.981 21.6998 0.007783 0.044159 23.52323
2006-06-28 07:20:05 51°17.487 2°51.967 21.702 0.007783 0.044159 23.52323
2006-06-28 07:20:10 51°17.498 2°51.947 21.6998 0.007783 0.044161 23.48952
2006-06-28 07:20:16 51°17.512 2°51.921 21.6843 0.007783 0.04416 23.48952
2006-06-28 07:20:21 51°17.522 2°51.899 21.6811 0.007783 0.04416 23.48952
2006-06-28 07:20:25 51°17.53 2°51.88 21.6836 0.007783 0.04416 23.48952
2006-06-28 07:20:31 51°17.542 2°51.852 21.6761 0.007783 0.044159 23.48952
2006-06-28 07:20:36 51°17.551 2°51.827 21.6735 0.007783 0.044159 23.48952
2006-06-28 07:20:41 51°17.56 2°51.803 21.6718 0.007783 0.044159 23.455811
2006-06-28 07:20:45 51°17.567 2°51.783 21.6893 0.007783 0.04416 23.48952
2006-06-28 07:20:51 51°17.576 2°51.752 21.7063 0.007783 0.044159 23.48952
2006-06-28 07:20:54 51°17.58 2°51.736 21.7042 0.007783 0.044159 23.48952
2006-06-28 07:21:01 51°17.589 2°51.699 21.7137 0.007783 0.04416 23.455811
2006-06-28 07:21:05 51°17.592 2°51.676 21.7068 0.007783 0.044161 23.422101
2006-06-28 07:21:10 51°17.596 2°51.648 21.7022 0.007783 0.044161 23.48952
2006-06-28 07:21:16 51°17.6 2°51.613 21.6823 0.007783 0.04416 23.455811
2006-06-28 07:21:21 51°17.602 2°51.584 21.6984 0.007783 0.04416 23.48952
2006-06-28 07:21:27 51°17.604 2°51.549 21.6669 0.007783 0.04416 23.48952
2006-06-28 07:21:31 51°17.605 2°51.525 21.6603 0.007783 0.04416 23.455811
2006-06-28 07:21:37 51°17.606 2°51.49 21.6655 0.007783 0.044159 23.455811
2006-06-28 07:21:42 51°17.609 2°51.461 21.6617 0.007783 0.044159 23.48952
2006-06-28 07:21:46 51°17.611 2°51.438 21.6684 0.007783 0.044159 23.48952
2006-06-28 07:21:51 51°17.614 2°51.408 21.6721 0.007783 0.04416 23.52323
2006-06-28 07:21:55 51°17.617 2°51.385 21.692 0.007783 0.04416 23.52323
2006-06-28 07:22:01 51°17.622 2°51.351 21.6891 0.007783 0.044159 23.48952
2006-06-28 07:22:05 51°17.626 2°51.328 21.6901 0.007783 0.04416 23.48952
2006-06-28 07:22:11 51°17.632 2°51.294 21.6942 0.007783 0.044161 23.48952
2006-06-28 07:22:17 51°17.639 2°51.261 21.6947 0.007783 0.04416 23.556939
2006-06-28 07:22:22 51°17.645 2°51.233 21.6873 0.007783 0.044159 23.52323
2006-06-28 07:22:27 51°17.652 2°51.206 21.6849 0.007783 0.044159 23.52323
2006-06-28 07:22:31 51°17.657 2°51.184 21.6945 0.007783 0.04416 23.48952
2006-06-28 07:22:37 51°17.664 2°51.15 21.7139 0.007783 0.04416 23.48952
2006-06-28 07:22:41 51°17.669 2°51.128 21.7119 0.007783 0.04416 23.52323
2006-06-28 07:22:47 51°17.677 2°51.095 21.6999 0.007783 0.04416 23.455811
2006-06-28 07:22:51 51°17.682 2°51.072 21.6938 0.007783 0.04416 23.48952
2006-06-28 07:22:54 51°17.686 2°51.056 21.7115 0.007783 0.04416 23.48952
2006-06-28 07:23:01 51°17.695 2°51.017 21.7127 0.007783 0.04416 23.48952
2006-06-28 07:23:06 51°17.701 2°50.989 21.6977 0.007783 0.044161 23.48952
2006-06-28 07:23:11 51°17.708 2°50.961 21.7112 0.007783 0.04416 23.422101
2006-06-28 07:23:15 51°17.713 2°50.938 21.7196 0.007783 0.044161 23.455811
2006-06-28 07:23:22 51°17.722 2°50.898 21.7148 0.007783 0.044162 23.455811
2006-06-28 07:23:27 51°17.728 2°50.87 21.7032 0.007783 0.044162 23.455811
2006-06-28 07:23:31 51°17.733 2°50.847 21.7091 0.007783 0.044162 23.455811
2006-06-28 07:23:35 51°17.738 2°50.824 21.7192 0.007783 0.044161 23.388392
2006-06-28 07:23:41 51°17.745 2°50.79 21.7276 0.007783 0.044161 23.422101
2006-06-28 07:23:46 51°17.751 2°50.762 21.7235 0.007783 0.044162 23.422101
2006-06-28 07:23:52 51°17.758 2°50.727 21.7279 0.007783 0.044162 23.48952
2006-06-28 07:23:57 51°17.765 2°50.699 21.7279 0.007783 0.044162 23.48952
2006-06-28 07:24:02 51°17.77 2°50.67 21.7264 0.007783 0.044162 23.455811
2006-06-28 07:24:07 51°17.777 2°50.642 21.723 0.007783 0.044162 23.455811
2006-06-28 07:24:11 51°17.781 2°50.619 21.714 0.007783 0.044162 23.422101
2006-06-28 07:24:17 51°17.789 2°50.585 21.7279 0.007783 0.044162 23.455811
2006-06-28 07:24:21 51°17.794 2°50.562 21.7119 0.007783 0.044162 23.388392
2006-06-28 07:24:25 51°17.799 2°50.539 21.7372 0.007783 0.044162 23.388392
2006-06-28 07:24:31 51°17.806 2°50.504 21.7387 0.007783 0.044163 23.48952
2006-06-28 07:24:34 51°17.809 2°50.487 21.7321 0.007783 0.044163 23.422101
2006-06-28 07:24:41 51°17.817 2°50.447 21.7388 0.007783 0.044163 23.455811
2006-06-28 07:24:46 51°17.823 2°50.418 21.7445 0.007783 0.044162 23.422101
2006-06-28 07:24:51 51°17.829 2°50.388 21.7313 0.007783 0.044162 23.422101
2006-06-28 07:24:55 51°17.833 2°50.365 21.7364 0.007783 0.044162 23.422101
2006-06-28 07:25:02 51°17.841 2°50.325 21.728 0.007783 0.044162 23.422101
2006-06-28 07:25:07 51°17.847 2°50.296 21.7292 0.007783 0.044163 23.422101
2006-06-28 07:25:11 51°17.852 2°50.273 21.7473 0.007783 0.044163 23.388392
2006-06-28 07:25:15 51°17.857 2°50.25 21.7462 0.007783 0.044164 23.455811
2006-06-28 07:25:21 51°17.864 2°50.216 21.7292 0.007783 0.044164 23.388392
2006-06-28 07:25:27 51°17.871 2°50.18 21.726 0.007783 0.044164 23.388392
2006-06-28 07:25:31 51°17.876 2°50.157 21.748 0.007783 0.044164 23.48952
2006-06-28 07:25:34 51°17.879 2°50.14 21.7487 0.007783 0.044162 23.354683
2006-06-28 07:25:41 51°17.888 2°50.1 21.7442 0.007783 0.044164 23.388392
2006-06-28 07:25:46 51°17.894 2°50.071 21.754 0.007783 0.044164 23.455811
2006-06-28 07:25:51 51°17.901 2°50.043 21.7461 0.007783 0.044163 23.388392
2006-06-28 07:25:55 51°17.906 2°50.021 21.7416 0.007783 0.044163 23.388392
2006-06-28 07:26:02 51°17.916 2°49.981 21.755 0.007783 0.044164 23.455811
2006-06-28 07:26:06 51°17.921 2°49.958 21.7585 0.007783 0.044164 23.388392
2006-06-28 07:26:11 51°17.928 2°49.93 21.761 0.007783 0.044164 23.422101
2006-06-28 07:26:15 51°17.934 2°49.907 21.7586 0.007783 0.044164 23.388392
2006-06-28 07:26:21 51°17.942 2°49.874 21.7396 0.007783 0.044164 23.388392
2006-06-28 07:26:25 51°17.947 2°49.852 21.7448 0.007783 0.044164 23.388392
2006-06-28 07:26:31 51°17.956 2°49.818 21.7535 0.007783 0.044165 23.422101
2006-06-28 07:26:34 51°17.96 2°49.801 21.7582 0.007783 0.044164 23.388392
2006-06-28 07:26:41 51°17.97 2°49.761 21.7683 0.007783 0.044165 23.388392
2006-06-28 07:26:46 51°17.976 2°49.732 21.7628 0.007783 0.044165 23.422101
2006-06-28 07:26:51 51°17.983 2°49.704 21.7661 0.007783 0.044165 23.422101
2006-06-28 07:26:57 51°17.991 2°49.67 21.7688 0.007783 0.044165 23.422101
2006-06-28 07:27:02 51°17.998 2°49.642 21.7654 0.007783 0.044166 23.455811
2006-06-28 07:27:07 51°18.005 2°49.614 21.7724 0.007783 0.044165 23.422101
2006-06-28 07:27:11 51°18.011 2°49.592 21.7778 0.007783 0.044166 23.388392
2006-06-28 07:27:15 51°18.017 2°49.569 21.7735 0.007783 0.044166 23.388392
2006-06-28 07:27:21 51°18.025 2°49.536 21.778 0.007783 0.044166 23.320973
2006-06-28 07:27:27 51°18.033 2°49.502 21.7793 0.007783 0.044166 23.320973
2006-06-28 07:27:31 51°18.039 2°49.48 21.7747 0.007783 0.044166 23.388392
2006-06-28 07:27:34 51°18.043 2°49.463 21.768 0.007783 0.044166 23.354683
2006-06-28 07:27:41 51°18.053 2°49.423 21.757 0.007783 0.044166 23.354683
2006-06-28 07:27:46 51°18.06 2°49.396 21.7709 0.007783 0.044166 23.422101
2006-06-28 07:27:51 51°18.067 2°49.368 21.762 0.007783 0.044166 23.354683
2006-06-28 07:27:57 51°18.076 2°49.335 21.7727 0.007783 0.044166 23.354683
2006-06-28 07:28:01 51°18.081 2°49.312 21.7874 0.007783 0.044167 23.388392
2006-06-28 07:28:07 51°18.09 2°49.279 21.7874 0.007783 0.044166 23.422101
2006-06-28 07:28:11 51°18.096 2°49.257 21.7641 0.007783 0.044166 23.354683
2006-06-28 07:28:15 51°18.102 2°49.235 21.7722 0.007783 0.044167 23.388392
2006-06-28 07:28:19 51°18.108 2°49.213 21.7849 0.007783 0.044166 23.354683
2006-06-28 07:28:27 51°18.119 2°49.169 21.788 0.007783 0.044166 23.354683
2006-06-28 07:28:31 51°18.125 2°49.147 21.7834 0.007783 0.044166 23.287264
2006-06-28 07:28:37 51°18.134 2°49.114 21.7899 0.007783 0.044167 23.354683
2006-06-28 07:28:42 51°18.141 2°49.087 21.7771 0.007783 0.044167 23.354683
2006-06-28 07:28:46 51°18.147 2°49.065 21.774 0.007783 0.044166 23.320973
2006-06-28 07:28:51 51°18.155 2°49.038 21.7939 0.007783 0.044167 23.388392
2006-06-28 07:28:57 51°18.165 2°49.006 21.7939 0.007783 0.044167 23.388392
2006-06-28 07:29:02 51°18.173 2°48.98 21.7962 0.007783 0.044167 23.354683
2006-06-28 07:29:06 51°18.18 2°48.959 21.7888 0.007783 0.044168 23.354683
2006-06-28 07:29:11 51°18.188 2°48.933 21.7767 0.007783 0.044167 23.320973
2006-06-28 07:29:17 51°18.198 2°48.901 21.7907 0.007783 0.044167 23.320973
2006-06-28 07:29:21 51°18.205 2°48.88 21.8015 0.007783 0.044167 23.354683
2006-06-28 07:29:27 51°18.215 2°48.848 21.7809 0.007783 0.044167 23.354683
2006-06-28 07:29:31 51°18.222 2°48.826 21.7928 0.007783 0.044167 23.287264
2006-06-28 07:29:36 51°18.231 2°48.8 21.7778 0.007783 0.044168 23.354683
2006-06-28 07:29:41 51°18.24 2°48.775 21.7932 0.007783 0.044168 23.320973
2006-06-28 07:29:47 51°18.252 2°48.744 21.7957 0.007783 0.044168 23.287264
2006-06-28 07:29:52 51°18.261 2°48.718 21.778 0.007783 0.044168 23.320973
2006-06-28 07:29:54 51°18.265 2°48.708 21.7878 0.007783 0.044168 23.320973
2006-06-28 07:30:01 51°18.279 2°48.672 21.8113 0.007783 0.044168 23.388392
2006-06-28 07:30:07 51°18.29 2°48.642 21.7962 0.007783 0.044167 23.253554
2006-06-28 07:30:11 51°18.298 2°48.622 21.7969 0.007783 0.044168 23.320973
2006-06-28 07:30:17 51°18.31 2°48.592 21.7866 0.007783 0.044168 23.287264
2006-06-28 07:30:21 51°18.318 2°48.572 21.8021 0.007783 0.044169 23.354683
2006-06-28 07:30:27 51°18.33 2°48.541 21.8083 0.007783 0.044169 23.354683
2006-06-28 07:30:31 51°18.337 2°48.52 21.8093 0.007783 0.044168 23.320973
2006-06-28 07:30:37 51°18.349 2°48.489 21.8158 0.007783 0.044169 23.320973
2006-06-28 07:30:42 51°18.358 2°48.465 21.8154 0.007783 0.044169 23.287264
2006-06-28 07:30:46 51°18.366 2°48.444 21.8202 0.007783 0.044169 23.320973
2006-06-28 07:30:51 51°18.375 2°48.419 21.8033 0.007783 0.04417 23.287264
2006-06-28 07:30:57 51°18.387 2°48.388 21.8066 0.007783 0.04417 23.287264
2006-06-28 07:31:01 51°18.394 2°48.367 21.8156 0.007783 0.04417 23.320973
2006-06-28 07:31:05 51°18.402 2°48.347 21.8064 0.007783 0.044169 23.287264
2006-06-28 07:31:10 51°18.412 2°48.321 21.817 0.007783 0.044169 23.287264
2006-06-28 07:31:17 51°18.426 2°48.285 21.8066 0.007783 0.044169 23.287264
2006-06-28 07:31:21 51°18.434 2°48.265 21.8285 0.007783 0.04417 23.320973
2006-06-28 07:31:26 51°18.444 2°48.24 21.8314 0.007783 0.04417 23.320973
2006-06-28 07:31:31 51°18.453 2°48.214 21.8257 0.007783 0.044169 23.253554
2006-06-28 07:31:35 51°18.461 2°48.193 21.8368 0.007783 0.04417 23.287264
2006-06-28 07:31:41 51°18.472 2°48.162 21.8264 0.007783 0.04417 23.320973
2006-06-28 07:31:45 51°18.479 2°48.141 21.8384 0.007783 0.04417 23.219845
2006-06-28 07:31:51 51°18.489 2°48.108 21.8361 0.007783 0.04417 23.219845
2006-06-28 07:31:56 51°18.497 2°48.081 21.8307 0.007783 0.04417 23.219845
2006-06-28 07:32:01 51°18.504 2°48.053 21.8323 0.007783 0.044171 23.219845
2006-06-28 07:32:04 51°18.509 2°48.036 21.8309 0.007783 0.04417 23.219845
2006-06-28 07:32:11 51°18.518 2°47.997 21.8378 0.007783 0.04417 23.253554
2006-06-28 07:32:17 51°18.527 2°47.963 21.8417 0.007783 0.04417 23.287264
2006-06-28 07:32:21 51°18.532 2°47.94 21.8304 0.007783 0.04417 23.186136
2006-06-28 07:32:27 51°18.541 2°47.906 21.8301 0.007783 0.04417 23.186136
2006-06-28 07:32:31 51°18.546 2°47.884 21.8265 0.007783 0.04417 23.287264
2006-06-28 07:32:35 51°18.553 2°47.862 21.8164 0.007783 0.04417 23.219845
2006-06-28 07:32:41 51°18.562 2°47.829 21.8312 0.007783 0.04417 23.253554
2006-06-28 07:32:45 51°18.569 2°47.807 21.8413 0.007783 0.044171 23.253554
2006-06-28 07:32:50 51°18.577 2°47.781 21.8381 0.007783 0.044172 23.253554
2006-06-28 07:32:57 51°18.589 2°47.743 21.8315 0.007783 0.044172 23.253554
2006-06-28 07:33:01 51°18.596 2°47.721 21.8458 0.007783 0.04417 23.219845
2006-06-28 07:33:05 51°18.603 2°47.7 21.835 0.007783 0.044171 23.253554
2006-06-28 07:33:11 51°18.612 2°47.666 21.8521 0.007783 0.044171 23.253554
2006-06-28 07:33:17 51°18.623 2°47.634 21.8513 0.007783 0.044172 23.287264
2006-06-28 07:33:21 51°18.629 2°47.612 21.858 0.007783 0.044171 23.219845
2006-06-28 07:33:25 51°18.636 2°47.59 21.8593 0.007783 0.044171 23.219845
2006-06-28 07:33:31 51°18.645 2°47.558 21.8448 0.007783 0.044172 23.219845
2006-06-28 07:33:34 51°18.651 2°47.541 21.8516 0.007783 0.044172 23.253554
2006-06-28 07:33:41 51°18.662 2°47.504 21.847 0.007783 0.044172 23.219845
2006-06-28 07:33:46 51°18.671 2°47.478 21.8588 0.007783 0.044172 23.253554
2006-06-28 07:33:51 51°18.68 2°47.451 21.8511 0.007783 0.044172 23.219845
2006-06-28 07:33:57 51°18.69 2°47.419 21.8453 0.007783 0.044172 23.219845
2006-06-28 07:34:01 51°18.698 2°47.398 21.8659 0.007783 0.044172 23.253554
2006-06-28 07:34:06 51°18.706 2°47.372 21.8572 0.007783 0.044172 23.219845
2006-06-28 07:34:11 51°18.714 2°47.345 21.8629 0.007783 0.044173 23.219845
2006-06-28 07:34:15 51°18.721 2°47.323 21.8633 0.007783 0.044172 23.219845
2006-06-28 07:34:22 51°18.732 2°47.286 21.8623 0.007783 0.044172 23.219845
2006-06-28 07:34:27 51°18.741 2°47.259 21.8505 0.007783 0.044172 23.219845
2006-06-28 07:34:31 51°18.748 2°47.238 21.854 0.007783 0.044173 23.253554
2006-06-28 07:34:35 51°18.755 2°47.216 21.863 0.007783 0.044173 23.219845
2006-06-28 07:34:42 51°18.766 2°47.179 21.8659 0.007783 0.044173 23.253554
2006-06-28 07:34:47 51°18.775 2°47.152 21.8679 0.007783 0.044172 23.186136
2006-06-28 07:34:51 51°18.781 2°47.13 21.8759 0.007783 0.044174 23.219845
2006-06-28 07:34:55 51°18.788 2°47.109 21.8792 0.007783 0.044174 23.219845
2006-06-28 07:35:01 51°18.799 2°47.077 21.877 0.007783 0.044173 23.152426
2006-06-28 07:35:07 51°18.809 2°47.044 21.8632 0.007783 0.044174 23.219845
2006-06-28 07:35:10 51°18.814 2°47.028 21.881 0.007783 0.044173 23.152426
2006-06-28 07:35:15 51°18.823 2°47.001 21.8842 0.007783 0.044174 23.219845
2006-06-28 07:35:20 51°18.831 2°46.973 21.8726 0.007783 0.044174 23.186136
2006-06-28 07:35:25 51°18.84 2°46.947 21.8801 0.007783 0.044174 23.186136
2006-06-28 07:35:31 51°18.85 2°46.914 21.8805 0.007783 0.044173 23.186136
2006-06-28 07:35:35 51°18.857 2°46.893 21.8873 0.007783 0.044173 23.152426
2006-06-28 07:35:40 51°18.865 2°46.865 21.885 0.007783 0.044173 23.152426
2006-06-28 07:35:47 51°18.877 2°46.827 21.8689 0.007783 0.044174 23.152426
2006-06-28 07:35:51 51°18.883 2°46.805 21.8868 0.007783 0.044175 23.186136
2006-06-28 07:35:57 51°18.894 2°46.772 21.8915 0.007783 0.044175 23.186136
2006-06-28 07:36:02 51°18.902 2°46.745 21.8943 0.007783 0.044174 23.186136
2006-06-28 07:36:06 51°18.909 2°46.723 21.8936 0.007783 0.044174 23.152426
2006-06-28 07:36:11 51°18.917 2°46.696 21.8977 0.007783 0.044174 23.186136
2006-06-28 07:36:15 51°18.924 2°46.674 21.8977 0.007783 0.044175 23.186136
2006-06-28 07:36:19 51°18.931 2°46.652 21.8824 0.007783 0.044175 23.152426
2006-06-28 07:36:27 51°18.944 2°46.608 21.9034 0.007783 0.044175 23.152426
2006-06-28 07:36:31 51°18.951 2°46.586 21.9032 0.007783 0.044175 23.186136
2006-06-28 07:36:37 51°18.961 2°46.552 21.907 0.007783 0.044175 23.219845
2006-06-28 07:36:42 51°18.969 2°46.524 21.9007 0.007783 0.044175 23.219845
2006-06-28 07:36:47 51°18.978 2°46.497 21.9088 0.007783 0.044173 23.186136
2006-06-28 07:36:51 51°18.984 2°46.475 21.9022 0.007783 0.044175 23.186136
2006-06-28 07:36:55 51°18.991 2°46.454 21.9091 0.007783 0.044175 23.186136
2006-06-28 07:37:02 51°19.003 2°46.415 21.907 0.007783 0.044176 23.186136
2006-06-28 07:37:07 51°19.012 2°46.387 21.9011 0.007783 0.044176 23.152426
2006-06-28 07:37:11 51°19.019 2°46.365 21.9094 0.007783 0.044175 23.152426
2006-06-28 07:37:17 51°19.029 2°46.333 21.9065 0.007783 0.044175 23.186136
2006-06-28 07:37:22 51°19.037 2°46.306 21.9154 0.007783 0.044176 23.186136
2006-06-28 07:37:27 51°19.046 2°46.278 21.9074 0.007783 0.044176 23.186136
2006-06-28 07:37:31 51°19.052 2°46.256 21.9106 0.007783 0.044176 23.152426
2006-06-28 07:37:35 51°19.059 2°46.234 21.8912 0.007783 0.044176 23.186136
2006-06-28 07:37:38 51°19.064 2°46.218 21.9088 0.007783 0.044175 23.118717
2006-06-28 07:37:47 51°19.08 2°46.169 21.9237 0.007783 0.044176 23.152426
2006-06-28 07:37:51 51°19.087 2°46.147 21.9273 0.007783 0.044176 23.152426
2006-06-28 07:37:57 51°19.097 2°46.115 21.9099 0.007783 0.044176 23.152426
2006-06-28 07:38:01 51°19.104 2°46.093 21.9196 0.007783 0.044177 23.118717
2006-06-28 07:38:06 51°19.113 2°46.066 21.922 0.007783 0.044177 23.118717
2006-06-28 07:38:11 51°19.122 2°46.038 21.9305 0.007783 0.044177 23.152426
2006-06-28 07:38:17 51°19.132 2°46.006 21.9304 0.007783 0.044177 23.152426
2006-06-28 07:38:21 51°19.139 2°45.984 21.932 0.007783 0.044177 23.152426
2006-06-28 07:38:27 51°19.149 2°45.951 21.931 0.007783 0.044177 23.152426
2006-06-28 07:38:31 51°19.156 2°45.93 21.9326 0.007783 0.044178 23.085007
2006-06-28 07:38:35 51°19.163 2°45.908 21.9264 0.007783 0.044179 23.152426
2006-06-28 07:38:42 51°19.175 2°45.869 21.9411 0.007783 0.04418 23.186136
2006-06-28 07:38:47 51°19.184 2°45.843 21.9375 0.007783 0.044181 23.186136
2006-06-28 07:38:51 51°19.191 2°45.821 21.9221 0.007783 0.04418 23.085007
2006-06-28 07:38:55 51°19.198 2°45.799 21.9403 0.007783 0.04418 23.085007
2006-06-28 07:39:02 51°19.21 2°45.76 21.9321 0.007783 0.044181 23.118717
2006-06-28 07:39:07 51°19.218 2°45.733 21.9337 0.007783 0.044183 23.085007
2006-06-28 07:39:11 51°19.225 2°45.711 21.9424 0.007783 0.044183 23.118717
2006-06-28 07:39:15 51°19.232 2°45.69 21.9323 0.007783 0.044183 23.085007
2006-06-28 07:39:22 51°19.245 2°45.651 21.9253 0.007783 0.044184 23.152426
2006-06-28 07:39:27 51°19.253 2°45.624 21.9406 0.007783 0.044184 23.152426
2006-06-28 07:39:31 51°19.26 2°45.603 21.9359 0.007783 0.044185 23.118717
2006-06-28 07:39:37 51°19.271 2°45.57 21.945 0.007783 0.044186 23.085007
2006-06-28 07:39:41 51°19.278 2°45.548 21.9418 0.007783 0.044186 23.085007
2006-06-28 07:39:47 51°19.289 2°45.516 21.9359 0.007783 0.044188 23.118717
2006-06-28 07:39:51 51°19.296 2°45.494 21.9486 0.007783 0.044189 23.152426
2006-06-28 07:39:57 51°19.307 2°45.461 21.9311 0.007783 0.044189 23.152426
2006-06-28 07:40:02 51°19.315 2°45.435 21.9619 0.007783 0.044188 23.118717
2006-06-28 07:40:06 51°19.323 2°45.413 21.9325 0.007783 0.044188 23.085007
2006-06-28 07:40:11 51°19.331 2°45.386 21.966 0.007783 0.044191 23.085007
2006-06-28 07:40:17 51°19.342 2°45.354 21.9496 0.007783 0.044191 23.152426
2006-06-28 07:40:21 51°19.349 2°45.332 21.9637 0.007783 0.044191 23.085007
2006-06-28 07:40:25 51°19.357 2°45.311 21.9592 0.007783 0.044191 23.085007
2006-06-28 07:40:30 51°19.366 2°45.284 21.9539 0.007783 0.044193 23.085007
2006-06-28 07:40:37 51°19.379 2°45.246 21.9711 0.007783 0.044194 23.118717
2006-06-28 07:40:41 51°19.386 2°45.225 21.934 0.007783 0.044194 23.085007
2006-06-28 07:40:46 51°19.394 2°45.198 21.9588 0.007783 0.044195 23.085007
2006-06-28 07:40:51 51°19.404 2°45.171 21.9619 0.007783 0.044196 23.085007
2006-06-28 07:40:55 51°19.411 2°45.149 21.9717 0.007783 0.044196 23.085007
2006-06-28 07:41:02 51°19.424 2°45.111 21.9634 0.007783 0.044197 23.152426
2006-06-28 07:41:07 51°19.433 2°45.083 21.9648 0.007783 0.044199 23.118717
2006-06-28 07:41:11 51°19.44 2°45.06 21.9727 0.007783 0.044199 23.085007
2006-06-28 07:41:15 51°19.447 2°45.039 21.9646 0.007783 0.0442 23.085007
2006-06-28 07:41:21 51°19.457 2°45.005 21.9769 0.007783 0.044202 23.085007
2006-06-28 07:41:26 51°19.466 2°44.977 21.9583 0.007783 0.044202 23.085007
2006-06-28 07:41:31 51°19.474 2°44.949 21.9534 0.007783 0.044202 23.051298
2006-06-28 07:41:37 51°19.483 2°44.915 21.9608 0.007783 0.044203 23.051298
2006-06-28 07:41:41 51°19.49 2°44.892 21.9577 0.007783 0.044204 23.051298
2006-06-28 07:41:47 51°19.499 2°44.859 21.9602 0.007783 0.044205 23.051298
2006-06-28 07:41:51 51°19.505 2°44.837 21.9765 0.007783 0.044206 23.085007
2006-06-28 07:41:55 51°19.512 2°44.814 21.9692 0.007783 0.044206 23.085007
2006-06-28 07:42:01 51°19.521 2°44.781 21.9827 0.007783 0.044207 23.051298
2006-06-28 07:42:05 51°19.528 2°44.759 21.9818 0.007783 0.044208 23.085007
2006-06-28 07:42:11 51°19.537 2°44.727 21.9781 0.007783 0.044209 23.051298
2006-06-28 07:42:17 51°19.547 2°44.694 21.9787 0.007783 0.04421 23.085007
2006-06-28 07:42:21 51°19.553 2°44.672 21.9806 0.007783 0.044211 23.051298
2006-06-28 07:42:25 51°19.56 2°44.65 21.9813 0.007783 0.044211 23.051298
2006-06-28 07:42:31 51°19.568 2°44.616 21.9926 0.007783 0.044211 23.051298
2006-06-28 07:42:37 51°19.577 2°44.583 21.9767 0.007783 0.044212 23.051298
2006-06-28 07:42:42 51°19.584 2°44.554 21.9765 0.007783 0.044213 23.051298
2006-06-28 07:42:47 51°19.59 2°44.526 21.9628 0.007783 0.044213 23.017589
2006-06-28 07:42:50 51°19.595 2°44.509 21.9806 0.007783 0.044214 23.085007
2006-06-28 07:42:57 51°19.605 2°44.47 21.9885 0.007783 0.044214 23.085007
2006-06-28 07:43:01 51°19.611 2°44.448 21.9857 0.007783 0.044214 23.085007
2006-06-28 07:43:05 51°19.617 2°44.427 21.9932 0.007783 0.044216 23.051298
2006-06-28 07:43:11 51°19.627 2°44.394 21.9951 0.007783 0.044217 23.085007
2006-06-28 07:43:14 51°19.631 2°44.377 21.9889 0.007783 0.044218 23.085007
2006-06-28 07:43:22 51°19.643 2°44.333 21.9814 0.007783 0.044219 23.017589
2006-06-28 07:43:27 51°19.65 2°44.304 21.9987 0.007783 0.044219 23.017589
2006-06-28 07:43:31 51°19.655 2°44.282 21.9992 0.007783 0.04422 23.051298
2006-06-28 07:43:34 51°19.659 2°44.265 21.9922 0.007783 0.04422 23.085007
2006-06-28 07:43:41 51°19.669 2°44.225 21.9974 0.007783 0.044221 23.051298
2006-06-28 07:43:46 51°19.675 2°44.196 21.9854 0.007783 0.044221 23.051298
2006-06-28 07:43:51 51°19.682 2°44.168 21.9992 0.007783 0.044222 23.051298
2006-06-28 07:43:57 51°19.69 2°44.133 22.0081 0.007783 0.044222 23.051298
2006-06-28 07:44:02 51°19.696 2°44.105 21.9998 0.007783 0.044223 23.017589
2006-06-28 07:44:07 51°19.703 2°44.076 22.0041 0.007783 0.044224 23.051298
2006-06-28 07:44:11 51°19.708 2°44.052 21.9971 0.007783 0.044225 23.051298
2006-06-28 07:44:15 51°19.713 2°44.029 22.0098 0.007783 0.044226 23.051298
2006-06-28 07:44:21 51°19.721 2°43.995 22.0117 0.007783 0.044227 23.017589
2006-06-28 07:44:23 51°19.724 2°43.983 22.0053 0.007783 0.044227 23.017589
2006-06-28 07:44:31 51°19.735 2°43.937 22.0049 0.007783 0.044227 23.017589
2006-06-28 07:44:37 51°19.743 2°43.903 22.0072 0.007783 0.044228 23.051298
2006-06-28 07:44:41 51°19.749 2°43.88 22.0058 0.007783 0.044229 23.017589
2006-06-28 07:44:45 51°19.754 2°43.856 22.0162 0.007783 0.04423 22.983879
2006-06-28 07:44:50 51°19.761 2°43.827 22.0164 0.007783 0.044231 23.017589
2006-06-28 07:44:57 51°19.77 2°43.787 22.0153 0.007783 0.044231 23.017589
2006-06-28 07:45:02 51°19.777 2°43.758 22.0265 0.007783 0.044232 23.017589
2006-06-28 07:45:06 51°19.783 2°43.735 22.018 0.007783 0.044233 22.983879
2006-06-28 07:45:11 51°19.789 2°43.706 22.0294 0.007783 0.044233 23.051298
2006-06-28 07:45:17 51°19.798 2°43.671 22.0339 0.007783 0.044234 23.051298
2006-06-28 07:45:22 51°19.804 2°43.642 22.0273 0.007783 0.044235 23.017589
2006-06-28 07:45:27 51°19.811 2°43.613 22.0298 0.007783 0.044235 23.017589
2006-06-28 07:45:32 51°19.817 2°43.584 22.0259 0.007783 0.044235 22.95017
2006-06-28 07:45:36 51°19.822 2°43.56 22.0377 0.007783 0.044237 23.017589
2006-06-28 07:45:41 51°19.829 2°43.532 22.0233 0.007783 0.044237 23.017589
2006-06-28 07:45:44 51°19.833 2°43.514 22.0294 0.007783 0.044238 23.017589
2006-06-28 07:45:51 51°19.841 2°43.473 22.0349 0.007783 0.044239 23.017589
2006-06-28 07:45:55 51°19.846 2°43.449 22.0173 0.007783 0.044239 23.017589
2006-06-28 07:45:58 51°19.849 2°43.432 22.0298 0.007783 0.044239 22.95017
2006-06-28 07:46:07 51°19.86 2°43.379 22.0038 0.007783 0.04424 23.017589
2006-06-28 07:46:11 51°19.865 2°43.355 22.0298 0.007783 0.04424 22.983879
2006-06-28 07:46:16 51°19.872 2°43.326 22.0144 0.007783 0.044242 23.017589
2006-06-28 07:46:21 51°19.878 2°43.297 22.0284 0.007783 0.044242 23.017589
2006-06-28 07:46:25 51°19.883 2°43.273 22.0301 0.007783 0.044242 23.017589
2006-06-28 07:46:31 51°19.89 2°43.238 22.0256 0.007783 0.044242 22.983879
2006-06-28 07:46:37 51°19.898 2°43.203 22.0322 0.007783 0.044244 22.983879
2006-06-28 07:46:42 51°19.904 2°43.174 22.0293 0.007783 0.044245 22.983879
2006-06-28 07:46:47 51°19.911 2°43.144 22.0372 0.007783 0.044246 22.95017
2006-06-28 07:46:51 51°19.916 2°43.121 22.0401 0.007783 0.044246 23.017589
2006-06-28 07:46:57 51°19.924 2°43.086 22.0277 0.007783 0.044246 23.017589
2006-06-28 07:47:01 51°19.929 2°43.062 22.042 0.007783 0.044248 22.95017
2006-06-28 07:47:06 51°19.936 2°43.034 22.0402 0.007783 0.044248 22.95017
2006-06-28 07:47:11 51°19.942 2°43.004 22.0576 0.007783 0.044249 22.983879
2006-06-28 07:47:17 51°19.95 2°42.969 22.0504 0.007783 0.04425 22.983879
2006-06-28 07:47:18 51°19.952 2°42.964 22.0307 0.007783 0.04425 22.95017
2006-06-28 07:47:27 51°19.963 2°42.911 22.0494 0.007783 0.04425 22.95017
2006-06-28 07:47:31 51°19.969 2°42.888 22.0488 0.007783 0.044252 23.017589
2006-06-28 07:47:36 51°19.976 2°42.859 22.0444 0.007783 0.044252 22.983879
2006-06-28 07:47:42 51°19.983 2°42.824 22.0536 0.007783 0.044254 22.983879
2006-06-28 07:47:47 51°19.99 2°42.795 22.0536 0.007783 0.044254 22.983879
2006-06-28 07:47:51 51°19.995 2°42.771 22.0611 0.007783 0.044255 22.95017
2006-06-28 07:47:55 51°20 2°42.748 22.0582 0.007783 0.044255 22.95017
2006-06-28 07:48:02 51°20.009 2°42.708 22.0387 0.00768 0.043747 22.95017
2006-06-28 07:48:07 51°20.015 2°42.678 22.051 0.007783 0.044257 23.017589
2006-06-28 07:48:11 51°20.02 2°42.655 22.0349 0.007783 0.044257 22.983879
2006-06-28 07:48:16 51°20.026 2°42.626 22.0587 0.00768 0.04375 22.95017
2006-06-28 07:48:21 51°20.033 2°42.597 22.0614 0.007783 0.044259 22.95017
2006-06-28 07:48:27 51°20.041 2°42.562 22.0699 0.007783 0.044259 22.95017
2006-06-28 07:48:31 51°20.046 2°42.539 22.0541 0.007783 0.04426 22.95017
2006-06-28 07:48:37 51°20.054 2°42.504 22.0726 0.007783 0.044262 22.983879
2006-06-28 07:48:42 51°20.06 2°42.475 22.0518 0.007783 0.044262 22.91646
2006-06-28 07:48:47 51°20.066 2°42.446 22.0652 0.007783 0.044263 22.95017
2006-06-28 07:48:51 51°20.072 2°42.423 22.053 0.007783 0.044263 22.983879
2006-06-28 07:48:57 51°20.079 2°42.388 22.0708 0.007783 0.044263 22.983879
2006-06-28 07:49:01 51°20.085 2°42.365 22.069 0.007783 0.044265 22.95017
2006-06-28 07:49:05 51°20.09 2°42.341 22.0824 0.007783 0.044266 22.95017
2006-06-28 07:49:11 51°20.098 2°42.306 22.0843 0.007783 0.044267 22.983879
2006-06-28 07:49:17 51°20.106 2°42.272 22.0851 0.007783 0.044268 22.983879
2006-06-28 07:49:21 51°20.11 2°42.248 22.0976 0.00768 0.04376 22.95017
2006-06-28 07:49:25 51°20.116 2°42.225 22.0879 0.00768 0.04376 22.95017
2006-06-28 07:49:31 51°20.122 2°42.189 22.0669 0.00768 0.043761 22.882751
2006-06-28 07:49:37 51°20.129 2°42.153 22.0598 0.007783 0.044271 22.95017
2006-06-28 07:49:41 51°20.133 2°42.129 22.0689 0.007783 0.044271 22.882751
2006-06-28 07:49:47 51°20.141 2°42.094 22.0746 0.00768 0.043763 22.983879
2006-06-28 07:49:51 51°20.145 2°42.07 22.0828 0.00768 0.043763 22.882751
2006-06-28 07:49:55 51°20.15 2°42.047 22.0768 0.00768 0.043763 22.882751
2006-06-28 07:50:01 51°20.158 2°42.012 22.073 0.007783 0.044273 22.95017
2006-06-28 07:50:06 51°20.164 2°41.982 22.0943 0.007783 0.044274 22.95017
2006-06-28 07:50:11 51°20.171 2°41.953 22.0689 0.00768 0.043767 22.95017
2006-06-28 07:50:15 51°20.176 2°41.93 22.0762 0.00768 0.043767 22.95017
2006-06-28 07:50:22 51°20.185 2°41.888 22.076 0.007783 0.044277 22.91646
2006-06-28 07:50:27 51°20.191 2°41.859 22.0751 0.007783 0.044277 22.91646
2006-06-28 07:50:31 51°20.196 2°41.836 22.0922 0.00768 0.043769 22.95017
2006-06-28 07:50:36 51°20.203 2°41.806 22.0963 0.00768 0.04377 22.95017
2006-06-28 07:50:41 51°20.209 2°41.777 22.0881 0.007783 0.04428 22.91646
2006-06-28 07:50:47 51°20.217 2°41.742 22.1061 0.00768 0.043773 22.95017
2006-06-28 07:50:51 51°20.221 2°41.719 22.1032 0.00768 0.043773 22.91646
2006-06-28 07:50:57 51°20.227 2°41.683 22.1009 0.00768 0.043773 22.91646
2006-06-28 07:51:01 51°20.23 2°41.659 22.0973 0.007783 0.044283 22.91646
2006-06-28 07:51:05 51°20.234 2°41.634 22.0992 0.00768 0.043775 22.882751
2006-06-28 07:51:11 51°20.238 2°41.597 22.111 0.00768 0.043776 22.882751
2006-06-28 07:51:16 51°20.242 2°41.567 22.0879 0.00768 0.043777 22.91646
2006-06-28 07:51:22 51°20.246 2°41.53 22.1137 0.00768 0.043777 22.95017
2006-06-28 07:51:25 51°20.249 2°41.512 22.1072 0.00768 0.043777 22.95017
2006-06-28 07:51:31 51°20.253 2°41.475 22.107 0.007783 0.044287 22.882751
2006-06-28 07:51:36 51°20.257 2°41.445 22.0996 0.00768 0.043779 22.95017
2006-06-28 07:51:41 51°20.261 2°41.415 22.1038 0.00768 0.04378 22.882751
2006-06-28 07:51:45 51°20.264 2°41.391 22.0989 0.00768 0.04378 22.91646
2006-06-28 07:51:51 51°20.268 2°41.355 22.116 0.00768 0.043782 22.91646
2006-06-28 07:51:57 51°20.273 2°41.318 22.1117 0.00768 0.043782 22.91646
2006-06-28 07:52:01 51°20.276 2°41.294 22.1181 0.00768 0.043783 22.91646
2006-06-28 07:52:05 51°20.279 2°41.27 22.0904 0.00768 0.043783 22.91646
2006-06-28 07:52:11 51°20.283 2°41.233 22.1205 0.00768 0.043785 22.882751
2006-06-28 07:52:16 51°20.288 2°41.203 22.1117 0.00768 0.043785 22.91646
2006-06-28 07:52:21 51°20.292 2°41.172 22.1231 0.00768 0.043786 22.95017
2006-06-28 07:52:27 51°20.297 2°41.136 22.1221 0.00768 0.043786 22.95017
2006-06-28 07:52:31 51°20.3 2°41.111 22.1252 0.00768 0.043787 22.91646
2006-06-28 07:52:37 51°20.306 2°41.075 22.1235 0.007783 0.044297 22.882751
2006-06-28 07:52:42 51°20.31 2°41.044 22.1237 0.00768 0.043789 22.849042
2006-06-28 07:52:47 51°20.314 2°41.013 22.1418 0.00768 0.04379 22.91646
2006-06-28 07:52:51 51°20.316 2°40.989 22.1277 0.00768 0.04379 22.882751
2006-06-28 07:52:55 51°20.319 2°40.964 22.1285 0.00768 0.04379 22.882751
2006-06-28 07:53:01 51°20.323 2°40.927 22.1129 0.00768 0.043791 22.882751
2006-06-28 07:53:05 51°20.325 2°40.902 22.136 0.00768 0.043792 22.882751
2006-06-28 07:53:10 51°20.328 2°40.871 22.1233 0.00768 0.043792 22.882751
2006-06-28 07:53:17 51°20.332 2°40.827 22.1377 0.00768 0.043794 22.882751
2006-06-28 07:53:21 51°20.335 2°40.802 22.1246 0.00768 0.043795 22.882751
2006-06-28 07:53:25 51°20.337 2°40.778 22.1086 0.00768 0.043795 22.882751
2006-06-28 07:53:31 51°20.341 2°40.74 22.1205 0.00768 0.043796 22.91646
2006-06-28 07:53:37 51°20.345 2°40.703 22.1369 0.00768 0.043795 22.849042
2006-06-28 07:53:41 51°20.348 2°40.678 22.1324 0.00768 0.043797 22.882751
2006-06-28 07:53:47 51°20.352 2°40.641 22.135 0.00768 0.043799 22.815332
2006-06-28 07:53:51 51°20.356 2°40.617 22.1518 0.00768 0.043801 22.882751
2006-06-28 07:53:57 51°20.36 2°40.58 22.138 0.00768 0.043801 22.882751
2006-06-28 07:54:01 51°20.363 2°40.556 22.1503 0.00768 0.043801 22.849042
2006-06-28 07:54:07 51°20.367 2°40.519 22.1542 0.00768 0.043802 22.91646
2006-06-28 07:54:11 51°20.37 2°40.494 22.1494 0.00768 0.043802 22.882751
2006-06-28 07:54:17 51°20.374 2°40.458 22.1563 0.00768 0.043803 22.882751
2006-06-28 07:54:22 51°20.377 2°40.427 22.1517 0.007783 0.044313 22.815332
2006-06-28 07:54:27 51°20.381 2°40.396 22.1596 0.007783 0.044313 22.815332
2006-06-28 07:54:31 51°20.384 2°40.371 22.163 0.00768 0.043805 22.849042
2006-06-28 07:54:37 51°20.388 2°40.335 22.1554 0.00768 0.043806 22.882751
2006-06-28 07:54:42 51°20.391 2°40.304 22.1476 0.00768 0.043807 22.91646
2006-06-28 07:54:47 51°20.395 2°40.273 22.1441 0.00768 0.043807 22.849042
2006-06-28 07:54:51 51°20.398 2°40.249 22.1511 0.00768 0.043809 22.882751
2006-06-28 07:54:56 51°20.401 2°40.218 22.1664 0.00768 0.043809 22.882751
2006-06-28 07:55:02 51°20.404 2°40.181 22.174 0.00768 0.043809 22.849042
2006-06-28 07:55:07 51°20.407 2°40.151 22.1416 0.00768 0.04381 22.849042
2006-06-28 07:55:11 51°20.409 2°40.126 22.1599 0.00768 0.043812 22.882751
2006-06-28 07:55:17 51°20.413 2°40.089 22.1562 0.00768 0.043812 22.849042
2006-06-28 07:55:21 51°20.415 2°40.065 22.1603 0.00768 0.043813 22.882751
2006-06-28 07:55:27 51°20.418 2°40.028 22.1714 0.00768 0.043813 22.882751
2006-06-28 07:55:32 51°20.422 2°39.997 22.1753 0.00768 0.043814 22.849042
2006-06-28 07:55:37 51°20.424 2°39.967 22.1671 0.00768 0.043815 22.91646
2006-06-28 07:55:41 51°20.426 2°39.942 22.1742 0.00768 0.043815 22.849042
2006-06-28 07:55:47 51°20.43 2°39.905 22.1726 0.00768 0.043817 22.849042
2006-06-28 07:55:52 51°20.432 2°39.874 22.1603 0.00768 0.043818 22.815332
2006-06-28 07:55:57 51°20.435 2°39.844 22.1467 0.00768 0.043818 22.815332
2006-06-28 07:56:01 51°20.436 2°39.819 22.1664 0.00768 0.043819 22.882751
2006-06-28 07:56:06 51°20.44 2°39.788 22.1578 0.00768 0.043819 22.849042
2006-06-28 07:56:12 51°20.443 2°39.75 22.1624 0.00768 0.04382 22.815332
2006-06-28 07:56:17 51°20.446 2°39.72 22.1874 0.00768 0.043821 22.781623
2006-06-28 07:56:21 51°20.449 2°39.695 22.1862 0.00768 0.043822 22.815332
2006-06-28 07:56:27 51°20.452 2°39.658 22.1689 0.00768 0.043822 22.815332
2006-06-28 07:56:31 51°20.455 2°39.634 22.1829 0.00768 0.043823 22.815332
2006-06-28 07:56:37 51°20.459 2°39.597 22.1708 0.00768 0.043824 22.815332
2006-06-28 07:56:42 51°20.462 2°39.566 22.1751 0.00768 0.043825 22.849042
2006-06-28 07:56:47 51°20.465 2°39.535 22.1929 0.00768 0.043825 22.815332
2006-06-28 07:56:51 51°20.467 2°39.51 22.1689 0.00768 0.043826 22.815332
2006-06-28 07:56:56 51°20.47 2°39.479 22.1808 0.00768 0.043826 22.815332
2006-06-28 07:57:01 51°20.473 2°39.448 22.1802 0.00768 0.043827 22.815332
2006-06-28 07:57:07 51°20.476 2°39.411 22.1932 0.00768 0.043828 22.747913
2006-06-28 07:57:11 51°20.478 2°39.386 22.1835 0.00768 0.043829 22.849042
2006-06-28 07:57:17 51°20.482 2°39.349 22.1964 0.00768 0.04383 22.849042
2006-06-28 07:57:22 51°20.485 2°39.318 22.1813 0.00768 0.043831 22.849042
2006-06-28 07:57:27 51°20.487 2°39.287 22.1764 0.00768 0.043831 22.849042
2006-06-28 07:57:32 51°20.49 2°39.255 22.1951 0.00768 0.043831 22.815332
2006-06-28 07:57:37 51°20.493 2°39.225 22.1781 0.00768 0.043832 22.815332
2006-06-28 07:57:42 51°20.496 2°39.193 22.1734 0.00768 0.043833 22.747913
2006-06-28 07:57:47 51°20.5 2°39.163 22.1826 0.00768 0.043834 22.815332
2006-06-28 07:57:51 51°20.502 2°39.138 22.1953 0.00768 0.043834 22.781623
2006-06-28 07:57:57 51°20.506 2°39.101 22.2054 0.00768 0.043834 22.781623
2006-06-28 07:58:01 51°20.508 2°39.075 22.2073 0.00768 0.043835 22.781623
2006-06-28 07:58:07 51°20.512 2°39.038 22.2097 0.00768 0.043836 22.781623
2006-06-28 07:58:12 51°20.515 2°39.006 22.1939 0.00768 0.043836 22.815332
2006-06-28 07:58:17 51°20.518 2°38.976 22.2204 0.00768 0.043837 22.781623
2006-06-28 07:58:21 51°20.52 2°38.951 22.1996 0.00768 0.043838 22.747913
2006-06-28 07:58:26 51°20.523 2°38.919 22.2177 0.00768 0.043838 22.747913
2006-06-28 07:58:32 51°20.526 2°38.882 22.1855 0.00768 0.043838 22.781623
2006-06-28 07:58:37 51°20.53 2°38.85 22.2101 0.00768 0.04384 22.781623
2006-06-28 07:58:42 51°20.532 2°38.819 22.2144 0.00768 0.04384 22.815332
2006-06-28 07:58:47 51°20.535 2°38.788 22.2234 0.00768 0.04384 22.815332
2006-06-28 07:58:51 51°20.538 2°38.763 22.2092 0.00768 0.043842 22.747913
2006-06-28 07:58:57 51°20.541 2°38.725 22.2203 0.00768 0.043842 22.747913
2006-06-28 07:59:02 51°20.544 2°38.693 22.2068 0.00768 0.043842 22.815332
2006-06-28 07:59:07 51°20.547 2°38.662 22.224 0.00768 0.043844 22.781623
2006-06-28 07:59:11 51°20.549 2°38.637 22.2118 0.00768 0.043844 22.747913
2006-06-28 07:59:17 51°20.553 2°38.599 22.2023 0.00768 0.043845 22.849042
2006-06-28 07:59:22 51°20.557 2°38.568 22.191 0.00768 0.043846 22.747913
2006-06-28 07:59:27 51°20.56 2°38.537 22.2232 0.00768 0.043846 22.747913
2006-06-28 07:59:31 51°20.563 2°38.512 22.2255 0.00768 0.043846 22.781623
2006-06-28 07:59:37 51°20.567 2°38.474 22.232 0.00768 0.043847 22.747913
2006-06-28 07:59:41 51°20.57 2°38.449 22.2072 0.00768 0.043848 22.815332
2006-06-28 07:59:47 51°20.574 2°38.411 22.2441 0.00768 0.043849 22.781623
2006-06-28 07:59:50 51°20.576 2°38.392 22.2352 0.00768 0.04385 22.714204
2006-06-28 07:59:57 51°20.58 2°38.348 22.2247 0.00768 0.04385 22.714204
2006-06-28 08:00:01 51°20.583 2°38.323 22.2346 0.00768 0.04385 22.714204
2006-06-28 08:00:07 51°20.586 2°38.286 22.2308 0.00768 0.043851 22.781623
2006-06-28 08:00:11 51°20.589 2°38.261 22.2307 0.00768 0.043852 22.747913
2006-06-28 08:00:17 51°20.592 2°38.223 22.2119 0.00768 0.043853 22.680494
2006-06-28 08:00:22 51°20.595 2°38.191 22.2122 0.00768 0.043854 22.747913
2006-06-28 08:00:26 51°20.597 2°38.166 22.2258 0.00768 0.043854 22.747913
2006-06-28 08:00:31 51°20.601 2°38.134 22.235 0.00768 0.043854 22.815332
2006-06-28 08:00:37 51°20.604 2°38.097 22.2375 0.00768 0.043855 22.815332
2006-06-28 08:00:41 51°20.607 2°38.072 22.2431 0.00768 0.043856 22.714204
2006-06-28 08:00:47 51°20.611 2°38.034 22.246 0.00768 0.043857 22.747913
2006-06-28 08:00:52 51°20.614 2°38.002 22.2286 0.00768 0.043857 22.714204
2006-06-28 08:00:57 51°20.617 2°37.971 22.2505 0.00768 0.043857 22.714204
2006-06-28 08:01:02 51°20.62 2°37.939 22.2442 0.00768 0.043857 22.747913
2006-06-28 08:01:06 51°20.623 2°37.914 22.2456 0.00768 0.043859 22.747913
2006-06-28 08:01:11 51°20.626 2°37.882 22.2529 0.00768 0.043859 22.747913
2006-06-28 08:01:17 51°20.63 2°37.845 22.2382 0.00768 0.043861 22.747913
2006-06-28 08:01:22 51°20.634 2°37.813 22.2474 0.00768 0.043861 22.747913
2006-06-28 08:01:27 51°20.637 2°37.782 22.2494 0.00768 0.043861 22.747913
2006-06-28 08:01:31 51°20.64 2°37.757 22.249 0.00768 0.043862 22.747913
2006-06-28 08:01:37 51°20.645 2°37.719 22.256 0.00768 0.043863 22.714204
2006-06-28 08:01:42 51°20.648 2°37.688 22.2592 0.00768 0.043864 22.714204
2006-06-28 08:01:47 51°20.651 2°37.656 22.254 0.00768 0.043865 22.781623
2006-06-28 08:01:51 51°20.654 2°37.631 22.2597 0.00768 0.043865 22.714204
2006-06-28 08:01:57 51°20.658 2°37.593 22.2599 0.00768 0.043865 22.714204
2006-06-28 08:02:02 51°20.661 2°37.562 22.2614 0.00768 0.043866 22.714204
2006-06-28 08:02:07 51°20.664 2°37.531 22.2536 0.00768 0.043868 22.714204
2006-06-28 08:02:11 51°20.667 2°37.506 22.2572 0.00768 0.043868 22.747913
2006-06-28 08:02:17 51°20.671 2°37.468 22.257 0.00768 0.043869 22.680494
2006-06-28 08:02:21 51°20.674 2°37.443 22.2723 0.00768 0.04387 22.714204
2006-06-28 08:02:27 51°20.678 2°37.405 22.262 0.00768 0.04387 22.714204
2006-06-28 08:02:30 51°20.679 2°37.386 22.2695 0.00768 0.043871 22.680494
2006-06-28 08:02:37 51°20.684 2°37.341 22.2599 0.00768 0.043871 22.714204
2006-06-28 08:02:42 51°20.687 2°37.31 22.2751 0.00768 0.043872 22.680494
2006-06-28 08:02:47 51°20.69 2°37.278 22.2698 0.00768 0.043873 22.747913
2006-06-28 08:02:52 51°20.694 2°37.247 22.2813 0.00768 0.043873 22.680494
2006-06-28 08:02:57 51°20.697 2°37.215 22.2639 0.00768 0.043873 22.680494
2006-06-28 08:03:01 51°20.7 2°37.19 22.2821 0.00768 0.043875 22.680494
2006-06-28 08:03:07 51°20.703 2°37.152 22.2826 0.00768 0.043875 22.680494
2006-06-28 08:03:10 51°20.706 2°37.133 22.2748 0.00768 0.043877 22.747913
2006-06-28 08:03:17 51°20.71 2°37.089 22.2858 0.00768 0.043877 22.714204
2006-06-28 08:03:22 51°20.714 2°37.058 22.2695 0.00768 0.043878 22.714204
2006-06-28 08:03:27 51°20.717 2°37.027 22.287 0.00768 0.043878 22.714204
2006-06-28 08:03:31 51°20.72 2°37.002 22.2857 0.00768 0.043879 22.714204
2006-06-28 08:03:36 51°20.723 2°36.97 22.2723 0.00768 0.04388 22.646785
2006-06-28 08:03:41 51°20.726 2°36.939 22.2818 0.00768 0.04388 22.646785
2006-06-28 08:03:47 51°20.73 2°36.901 22.2733 0.00768 0.043881 22.646785
2006-06-28 08:03:51 51°20.732 2°36.876 22.2872 0.00768 0.043882 22.646785
2006-06-28 08:03:56 51°20.735 2°36.844 22.272 0.00768 0.043882 22.646785
2006-06-28 08:04:02 51°20.738 2°36.806 22.2861 0.00768 0.043883 22.680494
2006-06-28 08:04:07 51°20.742 2°36.775 22.2968 0.00768 0.043884 22.680494
2006-06-28 08:04:10 51°20.744 2°36.756 22.2905 0.00768 0.043885 22.646785
2006-06-28 08:04:17 51°20.748 2°36.712 22.2902 0.00768 0.043885 22.646785
2006-06-28 08:04:21 51°20.75 2°36.687 22.3026 0.00768 0.043886 22.613076
2006-06-28 08:04:27 51°20.754 2°36.649 22.3051 0.00768 0.043886 22.613076
2006-06-28 08:04:32 51°20.757 2°36.618 22.2943 0.00768 0.043886 22.646785
2006-06-28 08:04:37 51°20.761 2°36.587 22.2927 0.00768 0.043888 22.646785
2006-06-28 08:04:41 51°20.763 2°36.562 22.3108 0.00768 0.043889 22.646785
2006-06-28 08:04:47 51°20.767 2°36.525 22.3139 0.00768 0.04389 22.680494
2006-06-28 08:04:52 51°20.77 2°36.493 22.2839 0.00768 0.04389 22.680494
2006-06-28 08:04:57 51°20.774 2°36.462 22.2987 0.00768 0.04389 22.680494
2006-06-28 08:05:01 51°20.776 2°36.437 22.2953 0.00768 0.04389 22.680494
2006-06-28 08:05:07 51°20.78 2°36.4 22.3067 0.00768 0.043891 22.646785
2006-06-28 08:05:12 51°20.784 2°36.368 22.2859 0.00768 0.043893 22.714204
2006-06-28 08:05:16 51°20.786 2°36.343 22.3096 0.00768 0.043893 22.613076
2006-06-28 08:05:22 51°20.79 2°36.306 22.3061 0.00768 0.043894 22.646785
2006-06-28 08:05:26 51°20.793 2°36.281 22.3205 0.00768 0.043894 22.646785
2006-06-28 08:05:31 51°20.797 2°36.25 22.3152 0.00768 0.043895 22.613076
2006-06-28 08:05:37 51°20.8 2°36.213 22.3145 0.00768 0.043896 22.613076
2006-06-28 08:05:42 51°20.804 2°36.182 22.3199 0.00768 0.043896 22.613076
2006-06-28 08:05:47 51°20.807 2°36.15 22.3181 0.00768 0.043897 22.646785
2006-06-28 08:05:51 51°20.81 2°36.125 22.3127 0.00768 0.043897 22.646785
2006-06-28 08:05:56 51°20.812 2°36.094 22.3252 0.00768 0.043897 22.646785
2006-06-28 08:06:02 51°20.816 2°36.057 22.3181 0.00768 0.043899 22.613076
2006-06-28 08:06:07 51°20.819 2°36.025 22.3177 0.00768 0.043899 22.579366
2006-06-28 08:06:11 51°20.821 2°36 22.3203 0.00768 0.0439 22.613076
2006-06-28 08:06:17 51°20.824 2°35.962 22.3248 0.00768 0.043901 22.613076
2006-06-28 08:06:22 51°20.827 2°35.931 22.2929 0.00768 0.043901 22.579366
2006-06-28 08:06:27 51°20.83 2°35.9 22.3234 0.00768 0.043901 22.579366
2006-06-28 08:06:31 51°20.833 2°35.874 22.324 0.00768 0.043902 22.646785
2006-06-28 08:06:37 51°20.836 2°35.837 22.3336 0.00768 0.043903 22.613076
2006-06-28 08:06:41 51°20.838 2°35.812 22.3208 0.00768 0.043904 22.646785
2006-06-28 08:06:47 51°20.841 2°35.774 22.33 0.00768 0.043904 22.613076
2006-06-28 08:06:51 51°20.843 2°35.749 22.3328 0.00768 0.043905 22.613076
2006-06-28 08:06:57 51°20.847 2°35.711 22.318 0.00768 0.043905 22.613076
2006-06-28 08:07:01 51°20.85 2°35.686 22.3207 0.00768 0.043906 22.613076
2006-06-28 08:07:05 51°20.853 2°35.661 22.3405 0.00768 0.043906 22.579366
2006-06-28 08:07:10 51°20.856 2°35.63 22.3399 0.00768 0.043907 22.579366
2006-06-28 08:07:15 51°20.859 2°35.599 22.3403 0.00768 0.043908 22.613076
2006-06-28 08:07:22 51°20.863 2°35.555 22.3386 0.00768 0.043909 22.579366
2006-06-28 08:07:26 51°20.865 2°35.53 22.3343 0.00768 0.043909 22.579366
2006-06-28 08:07:30 51°20.868 2°35.505 22.3267 0.00768 0.04391 22.545657
2006-06-28 08:07:37 51°20.872 2°35.46 22.3375 0.00768 0.04391 22.579366
2006-06-28 08:07:41 51°20.874 2°35.436 22.3401 0.00768 0.043911 22.545657
2006-06-28 08:07:47 51°20.877 2°35.398 22.3354 0.00768 0.043912 22.579366
2006-06-28 08:07:51 51°20.88 2°35.372 22.3515 0.00768 0.043912 22.613076
2006-06-28 08:07:57 51°20.883 2°35.335 22.3452 0.00768 0.043912 22.613076
2006-06-28 08:08:02 51°20.887 2°35.304 22.3593 0.00768 0.043914 22.545657
2006-06-28 08:08:07 51°20.89 2°35.272 22.3472 0.00768 0.043914 22.545657
2006-06-28 08:08:11 51°20.893 2°35.247 22.3576 0.00768 0.043915 22.579366
2006-06-28 08:08:15 51°20.895 2°35.222 22.3341 0.00768 0.043916 22.579366
2006-06-28 08:08:22 51°20.899 2°35.177 22.3502 0.00768 0.043916 22.579366
2006-06-28 08:08:27 51°20.903 2°35.146 22.3525 0.00768 0.043916 22.579366
2006-06-28 08:08:31 51°20.905 2°35.121 22.3441 0.00768 0.043916 22.545657
2006-06-28 08:08:37 51°20.909 2°35.083 22.3418 0.00768 0.043918 22.579366
2006-06-28 08:08:42 51°20.912 2°35.051 22.356 0.00768 0.043919 22.511947
2006-06-28 08:08:47 51°20.915 2°35.019 22.3785 0.00768 0.043918 22.579366
2006-06-28 08:08:51 51°20.917 2°34.994 22.3616 0.00768 0.04392 22.545657
2006-06-28 08:08:57 51°20.92 2°34.956 22.3708 0.00768 0.04392 22.545657
2006-06-28 08:09:01 51°20.922 2°34.931 22.3386 0.00768 0.043921 22.579366
2006-06-28 08:09:07 51°20.925 2°34.892 22.3635 0.00768 0.043921 22.511947
2006-06-28 08:09:12 51°20.927 2°34.86 22.3632 0.00768 0.043921 22.579366
2006-06-28 08:09:17 51°20.928 2°34.828 22.3494 0.00768 0.043922 22.511947
2006-06-28 08:09:22 51°20.931 2°34.796 22.3737 0.00768 0.043922 22.646785
2006-06-28 08:09:26 51°20.933 2°34.771 22.3689 0.00768 0.043922 22.646785
2006-06-28 08:09:32 51°20.935 2°34.732 22.359 0.00768 0.043923 22.545657
2006-06-28 08:09:37 51°20.937 2°34.701 22.365 0.00768 0.043925 22.579366
2006-06-28 08:09:42 51°20.939 2°34.669 22.375 0.00768 0.043924 22.579366
2006-06-28 08:09:46 51°20.941 2°34.643 22.3782 0.00768 0.043925 22.511947
2006-06-28 08:09:51 51°20.943 2°34.611 22.3813 0.00768 0.043926 22.579366
2006-06-28 08:09:55 51°20.943 2°34.586 22.3823 0.00768 0.043926 22.579366
2006-06-28 08:10:01 51°20.945 2°34.547 22.3814 0.00768 0.043928 22.511947
2006-06-28 08:10:05 51°20.946 2°34.521 22.372 0.00768 0.043929 22.478238
2006-06-28 08:10:11 51°20.946 2°34.482 22.3777 0.00768 0.043929 22.511947
2006-06-28 08:10:17 51°20.948 2°34.443 22.3848 0.00768 0.043929 22.511947
2006-06-28 08:10:22 51°20.949 2°34.41 22.3729 0.00768 0.043929 22.545657
2006-06-28 08:10:26 51°20.949 2°34.384 22.3752 0.00768 0.043929 22.545657
2006-06-28 08:10:30 51°20.95 2°34.357 22.3769 0.00768 0.04393 22.511947
2006-06-28 08:10:37 51°20.952 2°34.311 22.3971 0.00768 0.043931 22.511947
2006-06-28 08:10:42 51°20.953 2°34.278 22.357 0.00768 0.043931 22.613076
2006-06-28 08:10:47 51°20.955 2°34.244 22.3885 0.00768 0.043933 22.579366
2006-06-28 08:10:52 51°20.956 2°34.211 22.3889 0.00768 0.043933 22.478238
2006-06-28 08:10:57 51°20.958 2°34.178 22.3716 0.00768 0.043933 22.478238
2006-06-28 08:11:02 51°20.959 2°34.145 22.3765 0.00768 0.043933 22.511947
2006-06-28 08:11:07 51°20.96 2°34.111 22.4003 0.00768 0.043934 22.545657
2006-06-28 08:11:12 51°20.961 2°34.078 22.3976 0.00768 0.043935 22.511947
2006-06-28 08:11:17 51°20.962 2°34.044 22.3744 0.00768 0.043935 22.545657
2006-06-28 08:11:22 51°20.963 2°34.011 22.3949 0.00768 0.043935 22.545657
2006-06-28 08:11:27 51°20.964 2°33.978 22.373 0.00768 0.043935 22.545657